Darstellungsparameter: Aktuell verwendete Einstellungen:
Skalierung der Graphiken ... ?
xyx+y,   Skalierungsfaktor:      Skalierung: Modus: x, Faktor: 1
Darstellungszeitraum ... ?
Vom - - bis: - -   Zeitraum: 14.02.2019 - 18.02.2019
Min/Max/Avg-Anzeige ... ?
Zeige MMA aktuell
Zeige MMA Monat
Zeige MMA alles
Zeige --A aktuell
Zeige --A Monat
Zeige --A alles
Keine MMA-Anzeige
MMA:
Average (ber die Originaldaten)
MMA-Basis: 17.01.2019 - 19.02.2019
Quicknavigation für Darstellung... ?
Tage:      1T, 2T, 3T, 5T -1T -2T -3T -5T +1T +2T +3T +5T
Wochen: 1W, 2W, 3W -1W -2W -3W +1W +2W +3W
Monate: 1M, 3M, 6M -1M -3M -6M +1M +3M +6M
Jahre:    1J, 3J, 5J, 10J -1J -3J -5J -10J +1J +3J +5J +10J
Nutze für die Darstellung ... ?
Originaldaten oder Mittelwerte auf ...
Stundenbasis Tagesbasis Wochenbasis
Monatsbasis Jahresbasis      Datenbasis: Original-Daten
Darstellen als:
Statistik (Auto) Statistik J:M      Darstellung:
Zur Graphik,    zurück zur Übersicht aller Sensoren.
 
Tabellarische Datenbersicht: ?
 
Sensor: Nr:Datum:Temp:Feuchte:Taupunkt:
Aussen-T/F 1 14-02-2019 00:00:00 -0.7 C 93 % -1.69 C
2 14-02-2019 00:05:00 -0.7 C 93 % -1.69 C
3 14-02-2019 00:10:00 -0.7 C 93 % -1.69 C
4 14-02-2019 00:15:00 -0.7 C 93 % -1.69 C
5 14-02-2019 00:20:00 -0.7 C 94 % -1.54 C
6 14-02-2019 00:25:00 -0.7 C 94 % -1.54 C
7 14-02-2019 00:30:00 -0.6 C 94 % -1.44 C
8 14-02-2019 00:35:00 -0.6 C 93 % -1.59 C
9 14-02-2019 00:40:00 -0.7 C 93 % -1.69 C
10 14-02-2019 00:45:00 -0.8 C 93 % -1.79 C
11 14-02-2019 00:50:00 -0.8 C 93 % -1.79 C
12 14-02-2019 00:55:00 -0.9 C 93 % -1.89 C
13 14-02-2019 01:00:00 -1 C 93 % -1.99 C
14 14-02-2019 01:05:00 -1 C 94 % -1.84 C
15 14-02-2019 01:10:00 -1 C 94 % -1.84 C
16 14-02-2019 01:15:00 -1 C 94 % -1.84 C
17 14-02-2019 01:20:00 -1.1 C 94 % -1.94 C
18 14-02-2019 01:25:00 -1.1 C 94 % -1.94 C
19 14-02-2019 01:30:00 -1.1 C 94 % -1.94 C
20 14-02-2019 01:35:00 -1.1 C 94 % -1.94 C
21 14-02-2019 01:40:00 -1.1 C 94 % -1.94 C
22 14-02-2019 01:45:00 -1.1 C 94 % -1.94 C
23 14-02-2019 01:50:00 -1.1 C 94 % -1.94 C
24 14-02-2019 01:55:00 -1 C 94 % -1.84 C
25 14-02-2019 02:00:00 -1.1 C 94 % -1.94 C
Sensor: Nr:Datum:Temp:Feuchte:Taupunkt:
Aussen-T/F 26 14-02-2019 02:05:00 -1.1 C 94 % -1.94 C
27 14-02-2019 02:10:00 -1.2 C 94 % -2.04 C
28 14-02-2019 02:15:00 -1.2 C 94 % -2.04 C
29 14-02-2019 02:20:00 -1.2 C 94 % -2.04 C
30 14-02-2019 02:25:00 -1.1 C 94 % -1.94 C
31 14-02-2019 02:30:00 -1 C 95 % -1.7 C
32 14-02-2019 02:35:00 -0.9 C 95 % -1.6 C
33 14-02-2019 02:40:00 -0.9 C 95 % -1.6 C
34 14-02-2019 02:45:00 -1 C 94 % -1.84 C
35 14-02-2019 02:50:00 -1.2 C 94 % -2.04 C
36 14-02-2019 02:55:00 -1.3 C 94 % -2.14 C
37 14-02-2019 03:00:00 -1.3 C 94 % -2.14 C
38 14-02-2019 03:05:00 -1.2 C 94 % -2.04 C
39 14-02-2019 03:10:00 -1.3 C 94 % -2.14 C
40 14-02-2019 03:15:00 -1.4 C 94 % -2.24 C
41 14-02-2019 03:20:00 -1.5 C 94 % -2.34 C
42 14-02-2019 03:25:00 -1.6 C 94 % -2.44 C
43 14-02-2019 03:30:00 -1.6 C 94 % -2.44 C
44 14-02-2019 03:35:00 -1.7 C 94 % -2.54 C
45 14-02-2019 03:40:00 -1.6 C 95 % -2.29 C
46 14-02-2019 03:45:00 -1.7 C 94 % -2.54 C
47 14-02-2019 03:50:00 -1.7 C 94 % -2.54 C
48 14-02-2019 03:55:00 -1.8 C 94 % -2.64 C
49 14-02-2019 04:00:00 -1.8 C 94 % -2.64 C
50 14-02-2019 04:05:00 -1.8 C 94 % -2.64 C
Sensor: Nr:Datum:Temp:Feuchte:Taupunkt:
Aussen-T/F 51 14-02-2019 04:10:00 -1.8 C 95 % -2.49 C
52 14-02-2019 04:15:00 -1.8 C 95 % -2.49 C
53 14-02-2019 04:20:00 -1.8 C 95 % -2.49 C
54 14-02-2019 04:25:00 -1.8 C 95 % -2.49 C
55 14-02-2019 04:30:00 -1.8 C 95 % -2.49 C
56 14-02-2019 04:35:00 -1.8 C 95 % -2.49 C
57 14-02-2019 04:40:00 -1.7 C 95 % -2.39 C
58 14-02-2019 04:45:00 -1.7 C 95 % -2.39 C
59 14-02-2019 04:50:00 -1.7 C 95 % -2.39 C
60 14-02-2019 04:55:00 -1.8 C 95 % -2.49 C
61 14-02-2019 05:00:00 -1.9 C 95 % -2.59 C
62 14-02-2019 05:05:00 -1.9 C 95 % -2.59 C
63 14-02-2019 05:10:00 -1.9 C 95 % -2.59 C
64 14-02-2019 05:15:00 -1.9 C 95 % -2.59 C
65 14-02-2019 05:20:00 -2 C 95 % -2.69 C
66 14-02-2019 05:25:00 -2.1 C 95 % -2.79 C
67 14-02-2019 05:30:00 -2 C 95 % -2.69 C
68 14-02-2019 05:35:00 -1.8 C 95 % -2.49 C
69 14-02-2019 05:40:00 -1.8 C 95 % -2.49 C
70 14-02-2019 05:45:00 -2 C 95 % -2.69 C
71 14-02-2019 05:50:00 -2.1 C 95 % -2.79 C
72 14-02-2019 05:55:00 -2.2 C 95 % -2.89 C
73 14-02-2019 06:00:00 -2.3 C 95 % -2.99 C
74 14-02-2019 06:05:00 -2.4 C 95 % -3.09 C
75 14-02-2019 06:10:00 -2.4 C 95 % -3.09 C
Sensor: Nr:Datum:Temp:Feuchte:Taupunkt:
Aussen-T/F 76 14-02-2019 06:15:00 -2.4 C 95 % -3.09 C
77 14-02-2019 06:20:00 -2.6 C 95 % -3.29 C
78 14-02-2019 06:25:00 -2.6 C 95 % -3.29 C
79 14-02-2019 06:30:00 -2.4 C 95 % -3.09 C
80 14-02-2019 06:35:00 -2.4 C 95 % -3.09 C
81 14-02-2019 06:40:00 -2.4 C 95 % -3.09 C
82 14-02-2019 06:45:00 -2.4 C 95 % -3.09 C
83 14-02-2019 06:50:00 -2.5 C 95 % -3.19 C
84 14-02-2019 06:55:00 -2.6 C 95 % -3.29 C
85 14-02-2019 07:00:00 -2.7 C 95 % -3.39 C
86 14-02-2019 07:05:00 -2.7 C 95 % -3.39 C
87 14-02-2019 07:10:00 -2.7 C 95 % -3.39 C
88 14-02-2019 07:15:00 -2.7 C 95 % -3.39 C
89 14-02-2019 07:20:00 -2.7 C 95 % -3.39 C
90 14-02-2019 07:25:00 -2.6 C 95 % -3.29 C
91 14-02-2019 07:30:00 -2.6 C 95 % -3.29 C
92 14-02-2019 07:35:00 -2.7 C 95 % -3.39 C
93 14-02-2019 07:40:00 -2.6 C 95 % -3.29 C
94 14-02-2019 07:45:00 -2.6 C 95 % -3.29 C
95 14-02-2019 07:50:00 -2.6 C 96 % -3.15 C
96 14-02-2019 07:55:00 -2.6 C 96 % -3.15 C
97 14-02-2019 08:00:00 -2.6 C 95 % -3.29 C
98 14-02-2019 08:05:00 -2.6 C 95 % -3.29 C
99 14-02-2019 08:10:00 -2.6 C 95 % -3.29 C
100 14-02-2019 08:15:00 -2.6 C 95 % -3.29 C
Sensor: Nr:Datum:Temp:Feuchte:Taupunkt:
Aussen-T/F 101 14-02-2019 08:20:00 -2.6 C 95 % -3.29 C
102 14-02-2019 08:25:00 -2.6 C 96 % -3.15 C
103 14-02-2019 08:30:00 -2.4 C 96 % -2.95 C
104 14-02-2019 08:35:00 -2.3 C 96 % -2.85 C
105 14-02-2019 08:40:00 -2.3 C 96 % -2.85 C
106 14-02-2019 08:45:00 -2.2 C 96 % -2.75 C
107 14-02-2019 08:50:00 -2.2 C 96 % -2.75 C
108 14-02-2019 08:55:00 -2.2 C 96 % -2.75 C
109 14-02-2019 09:00:00 -2.1 C 96 % -2.65 C
110 14-02-2019 09:05:00 -2.1 C 96 % -2.65 C
111 14-02-2019 09:10:00 -2.1 C 96 % -2.65 C
112 14-02-2019 09:15:00 -2.1 C 96 % -2.65 C
113 14-02-2019 09:20:00 -2.1 C 96 % -2.65 C
114 14-02-2019 09:25:00 -2.1 C 96 % -2.65 C
115 14-02-2019 09:30:00 -2 C 96 % -2.55 C
116 14-02-2019 09:35:00 -2.1 C 96 % -2.65 C
117 14-02-2019 09:40:00 -2.1 C 96 % -2.65 C
118 14-02-2019 09:45:00 -2 C 96 % -2.55 C
119 14-02-2019 09:50:00 -2.1 C 96 % -2.65 C
120 14-02-2019 09:55:00 -2.1 C 96 % -2.65 C
121 14-02-2019 10:00:00 -2.1 C 96 % -2.65 C
122 14-02-2019 10:05:00 -2.1 C 96 % -2.65 C
123 14-02-2019 10:10:00 -2 C 96 % -2.55 C
124 14-02-2019 10:15:00 -1.9 C 96 % -2.45 C
125 14-02-2019 10:20:00 -1.8 C 96 % -2.35 C
Sensor: Nr:Datum:Temp:Feuchte:Taupunkt:
Aussen-T/F 126 14-02-2019 10:25:00 -1.7 C 96 % -2.25 C
127 14-02-2019 10:30:00 -1.6 C 96 % -2.15 C
128 14-02-2019 10:35:00 -1.5 C 96 % -2.05 C
129 14-02-2019 10:40:00 -1.4 C 96 % -1.95 C
130 14-02-2019 10:45:00 -1.4 C 96 % -1.95 C
131 14-02-2019 10:50:00 -1.4 C 96 % -1.95 C
132 14-02-2019 10:55:00 -1.4 C 96 % -1.95 C
133 14-02-2019 11:00:00 -1.3 C 96 % -1.85 C
134 14-02-2019 11:05:00 -1.3 C 96 % -1.85 C
135 14-02-2019 11:10:00 -1.2 C 96 % -1.75 C
136 14-02-2019 11:15:00 -1.2 C 96 % -1.75 C
137 14-02-2019 11:20:00 -1.1 C 96 % -1.66 C
138 14-02-2019 11:25:00 -1.1 C 96 % -1.66 C
139 14-02-2019 11:30:00 -0.9 C 97 % -1.32 C
140 14-02-2019 11:35:00 -0.8 C 96 % -1.36 C
141 14-02-2019 11:40:00 -0.7 C 97 % -1.12 C
142 14-02-2019 11:45:00 -0.6 C 97 % -1.02 C
143 14-02-2019 11:50:00 -0.4 C 97 % -0.82 C
144 14-02-2019 11:55:00 -0.2 C 97 % -0.62 C
145 14-02-2019 12:00:00 -0.1 C 97 % -0.52 C
146 14-02-2019 12:05:00 0.1 C 97 % -0.32 C
147 14-02-2019 12:10:00 0.1 C 97 % -0.32 C
148 14-02-2019 12:15:00 0.2 C 97 % -0.22 C
149 14-02-2019 12:20:00 0.3 C 97 % -0.12 C
150 14-02-2019 12:25:00 0.4 C 97 % -0.02 C
Sensor: Nr:Datum:Temp:Feuchte:Taupunkt:
Aussen-T/F 151 14-02-2019 12:30:00 0.6 C 97 % 0.18 C
152 14-02-2019 12:35:00 0.8 C 97 % 0.38 C
153 14-02-2019 12:40:00 1.1 C 97 % 0.68 C
154 14-02-2019 12:45:00 1.3 C 97 % 0.88 C
155 14-02-2019 12:50:00 1.6 C 97 % 1.18 C
156 14-02-2019 12:55:00 1.7 C 97 % 1.28 C
157 14-02-2019 13:00:00 1.8 C 97 % 1.38 C
158 14-02-2019 13:05:00 1.9 C 97 % 1.48 C
159 14-02-2019 13:10:00 2.1 C 97 % 1.67 C
160 14-02-2019 13:15:00 2.2 C 97 % 1.77 C
161 14-02-2019 13:20:00 2.4 C 97 % 1.97 C
162 14-02-2019 13:25:00 2.6 C 97 % 2.17 C
163 14-02-2019 13:30:00 2.8 C 97 % 2.37 C
164 14-02-2019 13:35:00 3 C 97 % 2.57 C
165 14-02-2019 13:40:00 3.3 C 97 % 2.87 C
166 14-02-2019 13:45:00 3.5 C 97 % 3.07 C
167 14-02-2019 13:50:00 3.7 C 97 % 3.27 C
168 14-02-2019 13:55:00 3.8 C 96 % 3.22 C
169 14-02-2019 14:00:00 3.9 C 96 % 3.32 C
170 14-02-2019 14:05:00 4.2 C 96 % 3.62 C
171 14-02-2019 14:10:00 4.3 C 96 % 3.72 C
172 14-02-2019 14:15:00 4.4 C 95 % 3.67 C
173 14-02-2019 14:20:00 4.4 C 94 % 3.52 C
174 14-02-2019 14:25:00 4.5 C 94 % 3.62 C
175 14-02-2019 14:30:00 4.6 C 94 % 3.72 C
Sensor: Nr:Datum:Temp:Feuchte:Taupunkt:
Aussen-T/F 176 14-02-2019 14:35:00 4.8 C 94 % 3.92 C
177 14-02-2019 14:40:00 4.9 C 94 % 4.02 C
178 14-02-2019 14:45:00 5.1 C 94 % 4.22 C
179 14-02-2019 14:50:00 5.3 C 94 % 4.41 C
180 14-02-2019 14:55:00 5.5 C 93 % 4.46 C
181 14-02-2019 15:00:00 5.7 C 93 % 4.66 C
182 14-02-2019 15:05:00 6 C 93 % 4.96 C
183 14-02-2019 15:10:00 6.3 C 93 % 5.25 C
184 14-02-2019 15:15:00 6.6 C 92 % 5.4 C
185 14-02-2019 15:20:00 6.7 C 91 % 5.34 C
186 14-02-2019 15:25:00 6.7 C 90 % 5.18 C
187 14-02-2019 15:30:00 6.7 C 89 % 5.02 C
188 14-02-2019 15:35:00 6.7 C 89 % 5.02 C
189 14-02-2019 15:40:00 6.7 C 89 % 5.02 C
190 14-02-2019 15:45:00 6.6 C 89 % 4.92 C
191 14-02-2019 15:50:00 6.6 C 88 % 4.76 C
192 14-02-2019 15:55:00 6.5 C 88 % 4.66 C
193 14-02-2019 16:00:00 6.4 C 88 % 4.56 C
194 14-02-2019 16:05:00 6.4 C 88 % 4.56 C
195 14-02-2019 16:10:00 6.3 C 88 % 4.46 C
196 14-02-2019 16:15:00 6.3 C 88 % 4.46 C
197 14-02-2019 16:20:00 6.2 C 88 % 4.36 C
198 14-02-2019 16:25:00 6.1 C 88 % 4.27 C
199 14-02-2019 16:30:00 6.1 C 88 % 4.27 C
200 14-02-2019 16:35:00 5.9 C 88 % 4.07 C
Sensor: Nr:Datum:Temp:Feuchte:Taupunkt:
Aussen-T/F 201 14-02-2019 16:40:00 5.9 C 88 % 4.07 C
202 14-02-2019 16:45:00 5.8 C 88 % 3.97 C
203 14-02-2019 16:50:00 5.8 C 88 % 3.97 C
204 14-02-2019 16:55:00 5.8 C 89 % 4.13 C
205 14-02-2019 17:00:00 5.8 C 88 % 3.97 C
206 14-02-2019 17:05:00 5.8 C 88 % 3.97 C
207 14-02-2019 17:10:00 5.8 C 88 % 3.97 C
208 14-02-2019 17:15:00 5.7 C 87 % 3.71 C
209 14-02-2019 17:20:00 5.7 C 88 % 3.87 C
210 14-02-2019 17:25:00 5.7 C 88 % 3.87 C
211 14-02-2019 17:30:00 5.7 C 87 % 3.71 C
212 14-02-2019 17:35:00 5.6 C 88 % 3.77 C
213 14-02-2019 17:40:00 5.6 C 88 % 3.77 C
214 14-02-2019 17:45:00 5.4 C 88 % 3.58 C
215 14-02-2019 17:50:00 5.4 C 88 % 3.58 C
216 14-02-2019 17:55:00 5.3 C 88 % 3.48 C
217 14-02-2019 18:00:00 5.2 C 88 % 3.38 C
218 14-02-2019 18:05:00 5 C 87 % 3.02 C
219 14-02-2019 18:10:00 4.9 C 87 % 2.92 C
220 14-02-2019 18:15:00 4.8 C 87 % 2.82 C
221 14-02-2019 18:20:00 4.7 C 87 % 2.73 C
222 14-02-2019 18:25:00 4.6 C 87 % 2.63 C
223 14-02-2019 18:30:00 4.5 C 87 % 2.53 C
224 14-02-2019 18:35:00 4.4 C 87 % 2.43 C
225 14-02-2019 18:40:00 4.3 C 86 % 2.17 C
Sensor: Nr:Datum:Temp:Feuchte:Taupunkt:
Aussen-T/F 226 14-02-2019 18:45:00 4.3 C 86 % 2.17 C
227 14-02-2019 18:50:00 4.2 C 85 % 1.91 C
228 14-02-2019 18:55:00 4.1 C 85 % 1.81 C
229 14-02-2019 19:00:00 3.9 C 85 % 1.61 C
230 14-02-2019 19:05:00 3.8 C 85 % 1.52 C
231 14-02-2019 19:10:00 3.6 C 85 % 1.32 C
232 14-02-2019 19:15:00 3.4 C 85 % 1.12 C
233 14-02-2019 19:20:00 3.3 C 85 % 1.03 C
234 14-02-2019 19:25:00 3.2 C 85 % 0.93 C
235 14-02-2019 19:30:00 3.1 C 85 % 0.83 C
236 14-02-2019 19:35:00 3.1 C 85 % 0.83 C
237 14-02-2019 19:40:00 3 C 85 % 0.73 C
238 14-02-2019 19:45:00 3 C 86 % 0.89 C
239 14-02-2019 19:50:00 3.1 C 86 % 0.99 C
240 14-02-2019 19:55:00 3.2 C 86 % 1.09 C
241 14-02-2019 20:00:00 3.2 C 86 % 1.09 C
242 14-02-2019 20:05:00 3.3 C 87 % 1.35 C
243 14-02-2019 20:10:00 3.3 C 87 % 1.35 C
244 14-02-2019 20:15:00 3.2 C 87 % 1.25 C
245 14-02-2019 20:20:00 3.1 C 87 % 1.15 C
246 14-02-2019 20:25:00 2.9 C 86 % 0.8 C
247 14-02-2019 20:30:00 2.8 C 86 % 0.7 C
248 14-02-2019 20:35:00 2.6 C 86 % 0.5 C
249 14-02-2019 20:40:00 2.4 C 87 % 0.46 C
250 14-02-2019 20:45:00 2.3 C 88 % 0.52 C
Sensor: Nr:Datum:Temp:Feuchte:Taupunkt:
Aussen-T/F 251 14-02-2019 20:50:00 2.2 C 88 % 0.42 C
252 14-02-2019 20:55:00 2.1 C 88 % 0.33 C
253 14-02-2019 21:00:00 2 C 89 % 0.38 C
254 14-02-2019 21:05:00 1.9 C 89 % 0.28 C
255 14-02-2019 21:10:00 1.8 C 89 % 0.19 C
256 14-02-2019 21:15:00 1.8 C 90 % 0.34 C
257 14-02-2019 21:20:00 1.8 C 90 % 0.34 C
258 14-02-2019 21:25:00 1.6 C 89 % -0.01 C
259 14-02-2019 21:30:00 1.5 C 89 % -0.11 C
260 14-02-2019 21:35:00 1.4 C 90 % -0.06 C
261 14-02-2019 21:40:00 1.4 C 89 % -0.21 C
262 14-02-2019 21:45:00 1.2 C 89 % -0.41 C
263 14-02-2019 21:50:00 1.2 C 90 % -0.25 C
264 14-02-2019 21:55:00 1 C 90 % -0.45 C
265 14-02-2019 22:00:00 0.9 C 90 % -0.55 C
266 14-02-2019 22:05:00 0.8 C 90 % -0.65 C
267 14-02-2019 22:10:00 0.8 C 91 % -0.5 C
268 14-02-2019 22:15:00 0.7 C 91 % -0.6 C
269 14-02-2019 22:20:00 0.6 C 91 % -0.7 C
270 14-02-2019 22:25:00 0.5 C 91 % -0.79 C
271 14-02-2019 22:30:00 0.4 C 91 % -0.89 C
272 14-02-2019 22:35:00 0.3 C 91 % -0.99 C
273 14-02-2019 22:40:00 0.3 C 92 % -0.84 C
274 14-02-2019 22:45:00 0.2 C 92 % -0.94 C
275 14-02-2019 22:50:00 0.2 C 92 % -0.94 C
Sensor: Nr:Datum:Temp:Feuchte:Taupunkt:
Aussen-T/F 276 14-02-2019 22:55:00 0.2 C 92 % -0.94 C
277 14-02-2019 23:00:00 0.1 C 92 % -1.04 C
278 14-02-2019 23:05:00 0.1 C 93 % -0.89 C
279 14-02-2019 23:10:00 0.1 C 93 % -0.89 C
280 14-02-2019 23:15:00 0.1 C 93 % -0.89 C
281 14-02-2019 23:20:00 0.1 C 93 % -0.89 C
282 14-02-2019 23:25:00 0 C 93 % -0.99 C
283 14-02-2019 23:30:00 -0.1 C 93 % -1.09 C
284 14-02-2019 23:35:00 -0.2 C 93 % -1.19 C
285 14-02-2019 23:40:00 -0.2 C 93 % -1.19 C
286 14-02-2019 23:45:00 -0.2 C 93 % -1.19 C
287 14-02-2019 23:50:00 -0.2 C 93 % -1.19 C
288 14-02-2019 23:55:00 -0.3 C 93 % -1.29 C
289 15-02-2019 00:00:00 -0.3 C 93 % -1.29 C
290 15-02-2019 00:05:00 -0.4 C 93 % -1.39 C
291 15-02-2019 00:10:00 -0.4 C 94 % -1.25 C
292 15-02-2019 00:15:00 -0.4 C 94 % -1.25 C
293 15-02-2019 00:20:00 -0.4 C 94 % -1.25 C
294 15-02-2019 00:25:00 -0.6 C 93 % -1.59 C
295 15-02-2019 00:30:00 -0.6 C 94 % -1.44 C
296 15-02-2019 00:35:00 -0.7 C 94 % -1.54 C
297 15-02-2019 00:40:00 -0.7 C 94 % -1.54 C
298 15-02-2019 00:45:00 -0.7 C 94 % -1.54 C
299 15-02-2019 00:50:00 -0.7 C 94 % -1.54 C
300 15-02-2019 00:55:00 -0.7 C 94 % -1.54 C
Sensor: Nr:Datum:Temp:Feuchte:Taupunkt:
Aussen-T/F 301 15-02-2019 01:00:00 -0.7 C 94 % -1.54 C
302 15-02-2019 01:05:00 -0.8 C 94 % -1.64 C
303 15-02-2019 01:10:00 -0.8 C 94 % -1.64 C
304 15-02-2019 01:15:00 -0.8 C 94 % -1.64 C
305 15-02-2019 01:20:00 -0.9 C 94 % -1.74 C
306 15-02-2019 01:25:00 -1 C 94 % -1.84 C
307 15-02-2019 01:30:00 -1 C 94 % -1.84 C
308 15-02-2019 01:35:00 -1 C 94 % -1.84 C
309 15-02-2019 01:40:00 -1 C 94 % -1.84 C
310 15-02-2019 01:45:00 -1 C 95 % -1.7 C
311 15-02-2019 01:50:00 -1.1 C 95 % -1.8 C
312 15-02-2019 01:55:00 -1.1 C 95 % -1.8 C
313 15-02-2019 02:00:00 -1.1 C 95 % -1.8 C
314 15-02-2019 02:05:00 -1 C 95 % -1.7 C
315 15-02-2019 02:10:00 -1 C 95 % -1.7 C
316 15-02-2019 02:15:00 -1.1 C 94 % -1.94 C
317 15-02-2019 02:20:00 -1.1 C 94 % -1.94 C
318 15-02-2019 02:25:00 -1.1 C 95 % -1.8 C
319 15-02-2019 02:30:00 -1.1 C 95 % -1.8 C
320 15-02-2019 02:35:00 -1.2 C 95 % -1.9 C
321 15-02-2019 02:40:00 -1.2 C 95 % -1.9 C
322 15-02-2019 02:45:00 -1.3 C 95 % -2 C
323 15-02-2019 02:50:00 -1.3 C 95 % -2 C
324 15-02-2019 02:55:00 -1.3 C 95 % -2 C
325 15-02-2019 03:00:00 -1.3 C 95 % -2 C
Sensor: Nr:Datum:Temp:Feuchte:Taupunkt:
Aussen-T/F 326 15-02-2019 03:05:00 -1.3 C 95 % -2 C
327 15-02-2019 03:10:00 -1.4 C 95 % -2.1 C
328 15-02-2019 03:15:00 -1.4 C 95 % -2.1 C
329 15-02-2019 03:20:00 -1.4 C 95 % -2.1 C
330 15-02-2019 03:25:00 -1.4 C 95 % -2.1 C
331 15-02-2019 03:30:00 -1.5 C 95 % -2.19 C
332 15-02-2019 03:35:00 -1.5 C 95 % -2.19 C
333 15-02-2019 03:40:00 -1.5 C 95 % -2.19 C
334 15-02-2019 03:45:00 -1.5 C 95 % -2.19 C
335 15-02-2019 03:50:00 -1.4 C 95 % -2.1 C
336 15-02-2019 03:55:00 -1.3 C 95 % -2 C
337 15-02-2019 04:00:00 -1.2 C 95 % -1.9 C
338 15-02-2019 04:05:00 -1.2 C 95 % -1.9 C
339 15-02-2019 04:10:00 -1.2 C 95 % -1.9 C
340 15-02-2019 04:15:00 -1.3 C 95 % -2 C
341 15-02-2019 04:20:00 -1.4 C 95 % -2.1 C
342 15-02-2019 04:25:00 -1.5 C 95 % -2.19 C
343 15-02-2019 04:30:00 -1.6 C 95 % -2.29 C
344 15-02-2019 04:35:00 -1.7 C 95 % -2.39 C
345 15-02-2019 04:40:00 -1.8 C 95 % -2.49 C
346 15-02-2019 04:45:00 -1.8 C 95 % -2.49 C
347 15-02-2019 04:50:00 -1.7 C 95 % -2.39 C
348 15-02-2019 04:55:00 -1.7 C 95 % -2.39 C
349 15-02-2019 05:00:00 -1.8 C 95 % -2.49 C
350 15-02-2019 05:05:00 -1.8 C 95 % -2.49 C
Sensor: Nr:Datum:Temp:Feuchte:Taupunkt:
Aussen-T/F 351 15-02-2019 05:10:00 -1.9 C 95 % -2.59 C
352 15-02-2019 05:15:00 -1.9 C 95 % -2.59 C
353 15-02-2019 05:20:00 -1.8 C 95 % -2.49 C
354 15-02-2019 05:25:00 -1.9 C 95 % -2.59 C
355 15-02-2019 05:30:00 -1.9 C 95 % -2.59 C
356 15-02-2019 05:35:00 -1.9 C 95 % -2.59 C
357 15-02-2019 05:40:00 -1.9 C 95 % -2.59 C
358 15-02-2019 05:45:00 -1.9 C 95 % -2.59 C
359 15-02-2019 05:50:00 -1.9 C 95 % -2.59 C
360 15-02-2019 05:55:00 -2 C 95 % -2.69 C
361 15-02-2019 06:00:00 -2 C 95 % -2.69 C
362 15-02-2019 06:05:00 -2.1 C 95 % -2.79 C
363 15-02-2019 06:10:00 -2.1 C 95 % -2.79 C
364 15-02-2019 06:15:00 -2.1 C 95 % -2.79 C
365 15-02-2019 06:20:00 -2.2 C 95 % -2.89 C
366 15-02-2019 06:25:00 -2.2 C 95 % -2.89 C
367 15-02-2019 06:30:00 -2.1 C 95 % -2.79 C
368 15-02-2019 06:35:00 -2.1 C 95 % -2.79 C
369 15-02-2019 06:40:00 -2 C 95 % -2.69 C
370 15-02-2019 06:45:00 -1.9 C 96 % -2.45 C
371 15-02-2019 06:50:00 -2 C 96 % -2.55 C
372 15-02-2019 06:55:00 -2.1 C 95 % -2.79 C
373 15-02-2019 07:00:00 -2.2 C 95 % -2.89 C
374 15-02-2019 07:05:00 -2.2 C 95 % -2.89 C
375 15-02-2019 07:10:00 -2.3 C 95 % -2.99 C
Sensor: Nr:Datum:Temp:Feuchte:Taupunkt:
Aussen-T/F 376 15-02-2019 07:15:00 -2.3 C 95 % -2.99 C
377 15-02-2019 07:20:00 -2.4 C 95 % -3.09 C
378 15-02-2019 07:25:00 -2.4 C 95 % -3.09 C
379 15-02-2019 07:30:00 -2.5 C 95 % -3.19 C
380 15-02-2019 07:35:00 -2.5 C 95 % -3.19 C
381 15-02-2019 07:40:00 -2.5 C 95 % -3.19 C
382 15-02-2019 07:45:00 -2.5 C 95 % -3.19 C
383 15-02-2019 07:50:00 -2.5 C 95 % -3.19 C
384 15-02-2019 07:55:00 -2.5 C 95 % -3.19 C
385 15-02-2019 08:00:00 -2.4 C 96 % -2.95 C
386 15-02-2019 08:05:00 -2.4 C 96 % -2.95 C
387 15-02-2019 08:10:00 -2.3 C 96 % -2.85 C
388 15-02-2019 08:15:00 -2.2 C 96 % -2.75 C
389 15-02-2019 08:20:00 -2.2 C 96 % -2.75 C
390 15-02-2019 08:25:00 -2.1 C 96 % -2.65 C
391 15-02-2019 08:30:00 -2.1 C 96 % -2.65 C
392 15-02-2019 08:35:00 -2.1 C 96 % -2.65 C
393 15-02-2019 08:40:00 -2.1 C 96 % -2.65 C
394 15-02-2019 08:45:00 -2.1 C 96 % -2.65 C
395 15-02-2019 08:50:00 -2.2 C 96 % -2.75 C
396 15-02-2019 08:55:00 -2.2 C 96 % -2.75 C
397 15-02-2019 09:00:00 -2.1 C 96 % -2.65 C
398 15-02-2019 09:05:00 -2.1 C 96 % -2.65 C
399 15-02-2019 09:10:00 -2 C 96 % -2.55 C
400 15-02-2019 09:15:00 -1.9 C 96 % -2.45 C
Sensor: Nr:Datum:Temp:Feuchte:Taupunkt:
Aussen-T/F 401 15-02-2019 09:20:00 -1.8 C 96 % -2.35 C
402 15-02-2019 09:25:00 -1.8 C 96 % -2.35 C
403 15-02-2019 09:30:00 -1.7 C 96 % -2.25 C
404 15-02-2019 09:35:00 -1.5 C 96 % -2.05 C
405 15-02-2019 09:40:00 -1.5 C 96 % -2.05 C
406 15-02-2019 09:45:00 -1.4 C 96 % -1.95 C
407 15-02-2019 09:50:00 -1.3 C 96 % -1.85 C
408 15-02-2019 09:55:00 -1.2 C 96 % -1.75 C
409 15-02-2019 10:00:00 -1.2 C 96 % -1.75 C
410 15-02-2019 10:05:00 -1.1 C 96 % -1.66 C
411 15-02-2019 10:10:00 -1 C 96 % -1.56 C
412 15-02-2019 10:15:00 -0.9 C 96 % -1.46 C
413 15-02-2019 10:20:00 -0.9 C 96 % -1.46 C
414 15-02-2019 10:25:00 -0.8 C 96 % -1.36 C
415 15-02-2019 10:30:00 -0.7 C 96 % -1.26 C
416 15-02-2019 10:35:00 -0.6 C 96 % -1.16 C
417 15-02-2019 10:40:00 -0.5 C 96 % -1.06 C
418 15-02-2019 10:45:00 -0.3 C 97 % -0.72 C
419 15-02-2019 10:50:00 -0.3 C 97 % -0.72 C
420 15-02-2019 10:55:00 -0.1 C 96 % -0.66 C
421 15-02-2019 11:00:00 0.1 C 97 % -0.32 C
422 15-02-2019 11:05:00 0.3 C 97 % -0.12 C
423 15-02-2019 11:10:00 0.6 C 97 % 0.18 C
424 15-02-2019 11:15:00 0.8 C 97 % 0.38 C
425 15-02-2019 11:20:00 1 C 97 % 0.58 C
Sensor: Nr:Datum:Temp:Feuchte:Taupunkt:
Aussen-T/F 426 15-02-2019 11:25:00 1.2 C 97 % 0.78 C
427 15-02-2019 11:30:00 1.4 C 97 % 0.98 C
428 15-02-2019 11:35:00 1.7 C 97 % 1.28 C
429 15-02-2019 11:40:00 1.8 C 97 % 1.38 C
430 15-02-2019 11:45:00 2 C 97 % 1.58 C
431 15-02-2019 11:50:00 2.1 C 97 % 1.67 C
432 15-02-2019 11:55:00 2.2 C 97 % 1.77 C
433 15-02-2019 12:00:00 2.2 C 97 % 1.77 C
434 15-02-2019 12:05:00 2.3 C 97 % 1.87 C
435 15-02-2019 12:10:00 2.6 C 97 % 2.17 C
436 15-02-2019 12:15:00 2.7 C 97 % 2.27 C
437 15-02-2019 12:20:00 2.9 C 97 % 2.47 C
438 15-02-2019 12:25:00 3.2 C 97 % 2.77 C
439 15-02-2019 12:30:00 3.6 C 97 % 3.17 C
440 15-02-2019 12:35:00 3.8 C 97 % 3.37 C
441 15-02-2019 12:40:00 4.1 C 97 % 3.67 C
442 15-02-2019 12:45:00 4.3 C 96 % 3.72 C
443 15-02-2019 12:50:00 4.6 C 96 % 4.02 C
444 15-02-2019 12:55:00 4.7 C 95 % 3.97 C
445 15-02-2019 13:00:00 4.8 C 95 % 4.07 C
446 15-02-2019 13:05:00 4.9 C 94 % 4.02 C
447 15-02-2019 13:10:00 5.1 C 94 % 4.22 C
448 15-02-2019 13:15:00 5.3 C 94 % 4.41 C
449 15-02-2019 13:20:00 5.5 C 93 % 4.46 C
450 15-02-2019 13:25:00 5.7 C 93 % 4.66 C
Sensor: Nr:Datum:Temp:Feuchte:Taupunkt:
Aussen-T/F 451 15-02-2019 13:30:00 5.9 C 92 % 4.7 C
452 15-02-2019 13:35:00 6.2 C 91 % 4.84 C
453 15-02-2019 13:40:00 6.5 C 90 % 4.98 C
454 15-02-2019 13:45:00 6.8 C 89 % 5.12 C
455 15-02-2019 13:50:00 7.1 C 88 % 5.25 C
456 15-02-2019 13:55:00 7.4 C 86 % 5.22 C
457 15-02-2019 14:00:00 7.7 C 85 % 5.34 C
458 15-02-2019 14:05:00 7.8 C 84 % 5.27 C
459 15-02-2019 14:10:00 8.1 C 84 % 5.56 C
460 15-02-2019 14:15:00 8.2 C 83 % 5.49 C
461 15-02-2019 14:20:00 8.3 C 82 % 5.41 C
462 15-02-2019 14:25:00 8.3 C 82 % 5.41 C
463 15-02-2019 14:30:00 8.3 C 82 % 5.41 C
464 15-02-2019 14:35:00 8.3 C 82 % 5.41 C
465 15-02-2019 14:40:00 8.4 C 82 % 5.51 C
466 15-02-2019 14:45:00 8.4 C 82 % 5.51 C
467 15-02-2019 14:50:00 8.6 C 82 % 5.71 C
468 15-02-2019 14:55:00 8.7 C 82 % 5.8 C
469 15-02-2019 15:00:00 8.8 C 81 % 5.72 C
470 15-02-2019 15:05:00 8.9 C 80 % 5.64 C
471 15-02-2019 15:10:00 9.2 C 80 % 5.94 C
472 15-02-2019 15:15:00 9.3 C 79 % 5.85 C
473 15-02-2019 15:20:00 9.5 C 79 % 6.05 C
474 15-02-2019 15:25:00 9.6 C 78 % 5.96 C
475 15-02-2019 15:30:00 9.8 C 77 % 5.97 C
Sensor: Nr:Datum:Temp:Feuchte:Taupunkt:
Aussen-T/F 476 15-02-2019 15:35:00 9.8 C 77 % 5.97 C
477 15-02-2019 15:40:00 9.9 C 76 % 5.87 C
478 15-02-2019 15:45:00 9.9 C 75 % 5.68 C
479 15-02-2019 15:50:00 10.1 C 75 % 5.88 C
480 15-02-2019 15:55:00 10.2 C 72 % 5.39 C
481 15-02-2019 16:00:00 10.4 C 71 % 5.38 C
482 15-02-2019 16:05:00 10.8 C 64 % 4.27 C
483 15-02-2019 16:10:00 11.2 C 68 % 5.52 C
484 15-02-2019 16:15:00 11.3 C 68 % 5.62 C
485 15-02-2019 16:20:00 11.1 C 67 % 5.21 C
486 15-02-2019 16:25:00 10.9 C 68 % 5.23 C
487 15-02-2019 16:30:00 10.8 C 69 % 5.35 C
488 15-02-2019 16:35:00 10.6 C 70 % 5.36 C
489 15-02-2019 16:40:00 10.3 C 70 % 5.08 C
490 15-02-2019 16:45:00 10.2 C 70 % 4.98 C
491 15-02-2019 16:50:00 10.2 C 71 % 5.18 C
492 15-02-2019 16:55:00 10.1 C 71 % 5.09 C
493 15-02-2019 17:00:00 10 C 71 % 4.99 C
494 15-02-2019 17:05:00 9.9 C 71 % 4.9 C
495 15-02-2019 17:10:00 9.9 C 71 % 4.9 C
496 15-02-2019 17:15:00 9.8 C 71 % 4.8 C
497 15-02-2019 17:20:00 9.7 C 71 % 4.7 C
498 15-02-2019 17:25:00 9.6 C 71 % 4.61 C
499 15-02-2019 17:30:00 9.4 C 72 % 4.62 C
500 15-02-2019 17:35:00 9.3 C 71 % 4.32 C
Sensor: Nr:Datum:Temp:Feuchte:Taupunkt:
Aussen-T/F 501 15-02-2019 17:40:00 9 C 72 % 4.23 C
502 15-02-2019 17:45:00 8.8 C 73 % 4.24 C
503 15-02-2019 17:50:00 8.6 C 73 % 4.04 C
504 15-02-2019 17:55:00 8.3 C 73 % 3.75 C
505 15-02-2019 18:00:00 8.1 C 74 % 3.75 C
506 15-02-2019 18:05:00 7.8 C 74 % 3.46 C
507 15-02-2019 18:10:00 7.7 C 75 % 3.56 C
508 15-02-2019 18:15:00 7.6 C 75 % 3.46 C
509 15-02-2019 18:20:00 7.4 C 76 % 3.45 C
510 15-02-2019 18:25:00 7.3 C 76 % 3.36 C
511 15-02-2019 18:30:00 7.1 C 76 % 3.16 C
512 15-02-2019 18:35:00 7 C 77 % 3.25 C
513 15-02-2019 18:40:00 6.9 C 77 % 3.16 C
514 15-02-2019 18:45:00 6.9 C 77 % 3.16 C
515 15-02-2019 18:50:00 6.8 C 77 % 3.06 C
516 15-02-2019 18:55:00 6.7 C 78 % 3.14 C
517 15-02-2019 19:00:00 6.6 C 78 % 3.05 C
518 15-02-2019 19:05:00 6.6 C 78 % 3.05 C
519 15-02-2019 19:10:00 6.4 C 79 % 3.03 C
520 15-02-2019 19:15:00 6.3 C 79 % 2.93 C
521 15-02-2019 19:20:00 6.3 C 80 % 3.11 C
522 15-02-2019 19:25:00 6.3 C 80 % 3.11 C
523 15-02-2019 19:30:00 6.2 C 80 % 3.01 C
524 15-02-2019 19:35:00 6.2 C 81 % 3.19 C
525 15-02-2019 19:40:00 6.1 C 80 % 2.92 C
Sensor: Nr:Datum:Temp:Feuchte:Taupunkt:
Aussen-T/F 526 15-02-2019 19:45:00 5.9 C 80 % 2.72 C
527 15-02-2019 19:50:00 5.7 C 81 % 2.7 C
528 15-02-2019 19:55:00 5.4 C 81 % 2.41 C
529 15-02-2019 20:00:00 5.2 C 82 % 2.39 C
530 15-02-2019 20:05:00 5.1 C 84 % 2.63 C
531 15-02-2019 20:10:00 4.9 C 84 % 2.43 C
532 15-02-2019 20:15:00 4.8 C 84 % 2.33 C
533 15-02-2019 20:20:00 4.7 C 84 % 2.23 C
534 15-02-2019 20:25:00 4.6 C 84 % 2.14 C
535 15-02-2019 20:30:00 4.4 C 84 % 1.94 C
536 15-02-2019 20:35:00 4.2 C 85 % 1.91 C
537 15-02-2019 20:40:00 4.1 C 85 % 1.81 C
538 15-02-2019 20:45:00 3.9 C 86 % 1.78 C
539 15-02-2019 20:50:00 3.9 C 85 % 1.61 C
540 15-02-2019 20:55:00 3.8 C 87 % 1.84 C
541 15-02-2019 21:00:00 3.7 C 87 % 1.74 C
542 15-02-2019 21:05:00 3.6 C 88 % 1.8 C
543 15-02-2019 21:10:00 3.4 C 87 % 1.45 C
544 15-02-2019 21:15:00 3.3 C 88 % 1.51 C
545 15-02-2019 21:20:00 3.3 C 89 % 1.67 C
546 15-02-2019 21:25:00 3.3 C 89 % 1.67 C
547 15-02-2019 21:30:00 3.2 C 88 % 1.41 C
548 15-02-2019 21:35:00 3.1 C 88 % 1.31 C
549 15-02-2019 21:40:00 2.9 C 88 % 1.11 C
550 15-02-2019 21:45:00 2.8 C 89 % 1.17 C
Sensor: Nr:Datum:Temp:Feuchte:Taupunkt:
Aussen-T/F 551 15-02-2019 21:50:00 2.7 C 89 % 1.07 C
552 15-02-2019 21:55:00 2.6 C 89 % 0.97 C
553 15-02-2019 22:00:00 2.4 C 89 % 0.78 C
554 15-02-2019 22:05:00 2.4 C 90 % 0.93 C
555 15-02-2019 22:10:00 2.3 C 89 % 0.68 C
556 15-02-2019 22:15:00 2.1 C 90 % 0.64 C
557 15-02-2019 22:20:00 1.9 C 90 % 0.44 C
558 15-02-2019 22:25:00 1.8 C 90 % 0.34 C
559 15-02-2019 22:30:00 1.7 C 90 % 0.24 C
560 15-02-2019 22:35:00 1.7 C 91 % 0.39 C
561 15-02-2019 22:40:00 1.6 C 91 % 0.29 C
562 15-02-2019 22:45:00 1.5 C 91 % 0.19 C
563 15-02-2019 22:50:00 1.4 C 91 % 0.1 C
564 15-02-2019 22:55:00 1.4 C 92 % 0.25 C
565 15-02-2019 23:00:00 1.4 C 92 % 0.25 C
566 15-02-2019 23:05:00 1.4 C 92 % 0.25 C
567 15-02-2019 23:10:00 1.4 C 92 % 0.25 C
568 15-02-2019 23:15:00 1.4 C 92 % 0.25 C
569 15-02-2019 23:20:00 1.3 C 92 % 0.15 C
570 15-02-2019 23:25:00 1.3 C 92 % 0.15 C
571 15-02-2019 23:30:00 1.2 C 92 % 0.05 C
572 15-02-2019 23:35:00 1.2 C 92 % 0.05 C
573 15-02-2019 23:40:00 1.2 C 93 % 0.2 C
574 15-02-2019 23:45:00 1.2 C 92 % 0.05 C
575 15-02-2019 23:50:00 1 C 92 % -0.15 C
Sensor: Nr:Datum:Temp:Feuchte:Taupunkt:
Aussen-T/F 576 15-02-2019 23:55:00 0.8 C 92 % -0.35 C
577 16-02-2019 00:00:00 0.8 C 93 % -0.2 C
578 16-02-2019 00:05:00 0.8 C 93 % -0.2 C
579 16-02-2019 00:10:00 0.7 C 92 % -0.45 C
580 16-02-2019 00:15:00 0.6 C 93 % -0.4 C
581 16-02-2019 00:20:00 0.5 C 92 % -0.65 C
582 16-02-2019 00:25:00 0.4 C 93 % -0.6 C
583 16-02-2019 00:30:00 0.3 C 93 % -0.7 C
584 16-02-2019 00:35:00 0.3 C 93 % -0.7 C
585 16-02-2019 00:40:00 0.3 C 93 % -0.7 C
586 16-02-2019 00:45:00 0.2 C 93 % -0.79 C
587 16-02-2019 00:50:00 0.1 C 93 % -0.89 C
588 16-02-2019 00:55:00 0 C 93 % -0.99 C
589 16-02-2019 01:00:00 -0.1 C 93 % -1.09 C
590 16-02-2019 01:05:00 0 C 94 % -0.85 C
591 16-02-2019 01:10:00 -0.1 C 94 % -0.95 C
592 16-02-2019 01:15:00 -0.2 C 93 % -1.19 C
593 16-02-2019 01:20:00 -0.2 C 94 % -1.05 C
594 16-02-2019 01:25:00 -0.2 C 94 % -1.05 C
595 16-02-2019 01:30:00 -0.1 C 94 % -0.95 C
596 16-02-2019 01:35:00 -0.1 C 94 % -0.95 C
597 16-02-2019 01:40:00 -0.1 C 94 % -0.95 C
598 16-02-2019 01:45:00 -0.2 C 94 % -1.05 C
599 16-02-2019 01:50:00 -0.2 C 94 % -1.05 C
600 16-02-2019 01:55:00 -0.3 C 94 % -1.15 C
Sensor: Nr:Datum:Temp:Feuchte:Taupunkt:
Aussen-T/F 601 16-02-2019 02:00:00 -0.3 C 94 % -1.15 C
602 16-02-2019 02:05:00 -0.3 C 94 % -1.15 C
603 16-02-2019 02:10:00 -0.3 C 95 % -1 C
604 16-02-2019 02:15:00 -0.2 C 95 % -0.9 C
605 16-02-2019 02:20:00 -0.3 C 94 % -1.15 C
606 16-02-2019 02:25:00 -0.4 C 94 % -1.25 C
607 16-02-2019 02:30:00 -0.5 C 94 % -1.34 C
608 16-02-2019 02:35:00 -0.7 C 94 % -1.54 C
609 16-02-2019 02:40:00 -0.7 C 94 % -1.54 C
610 16-02-2019 02:45:00 -0.7 C 95 % -1.4 C
611 16-02-2019 02:50:00 -0.7 C 95 % -1.4 C
612 16-02-2019 02:55:00 -0.7 C 95 % -1.4 C
613 16-02-2019 03:00:00 -0.8 C 94 % -1.64 C
614 16-02-2019 03:05:00 -0.8 C 94 % -1.64 C
615 16-02-2019 03:10:00 -0.9 C 94 % -1.74 C
616 16-02-2019 03:15:00 -0.9 C 95 % -1.6 C
617 16-02-2019 03:20:00 -0.9 C 95 % -1.6 C
618 16-02-2019 03:25:00 -0.8 C 95 % -1.5 C
619 16-02-2019 03:30:00 -0.6 C 95 % -1.3 C
620 16-02-2019 03:35:00 -0.6 C 95 % -1.3 C
621 16-02-2019 03:40:00 -0.7 C 95 % -1.4 C
622 16-02-2019 03:45:00 -0.7 C 95 % -1.4 C
623 16-02-2019 03:50:00 -0.7 C 95 % -1.4 C
624 16-02-2019 03:55:00 -0.7 C 95 % -1.4 C
625 16-02-2019 04:00:00 -0.8 C 95 % -1.5 C
Sensor: Nr:Datum:Temp:Feuchte:Taupunkt:
Aussen-T/F 626 16-02-2019 04:05:00 -0.6 C 95 % -1.3 C
627 16-02-2019 04:10:00 -0.6 C 95 % -1.3 C
628 16-02-2019 04:15:00 -0.7 C 95 % -1.4 C
629 16-02-2019 04:20:00 -0.8 C 95 % -1.5 C
630 16-02-2019 04:25:00 -0.9 C 95 % -1.6 C
631 16-02-2019 04:30:00 -1 C 95 % -1.7 C
632 16-02-2019 04:35:00 -1 C 95 % -1.7 C
633 16-02-2019 04:40:00 -1.1 C 95 % -1.8 C
634 16-02-2019 04:45:00 -1.2 C 95 % -1.9 C
635 16-02-2019 04:50:00 -1.2 C 95 % -1.9 C
636 16-02-2019 04:55:00 -1.2 C 95 % -1.9 C
637 16-02-2019 05:00:00 -1.1 C 95 % -1.8 C
638 16-02-2019 05:05:00 -0.9 C 96 % -1.46 C
639 16-02-2019 05:10:00 -0.8 C 95 % -1.5 C
640 16-02-2019 05:15:00 -0.9 C 95 % -1.6 C
641 16-02-2019 05:20:00 -1.2 C 95 % -1.9 C
642 16-02-2019 05:25:00 -1.3 C 95 % -2 C
643 16-02-2019 05:30:00 -1.4 C 95 % -2.1 C
644 16-02-2019 05:35:00 -1.5 C 95 % -2.19 C
645 16-02-2019 05:40:00 -1.4 C 95 % -2.1 C
646 16-02-2019 05:45:00 -1.1 C 96 % -1.66 C
647 16-02-2019 05:50:00 -0.9 C 96 % -1.46 C
648 16-02-2019 05:55:00 -0.9 C 96 % -1.46 C
649 16-02-2019 06:00:00 -1.1 C 95 % -1.8 C
650 16-02-2019 06:05:00 -1.3 C 95 % -2 C
Sensor: Nr:Datum:Temp:Feuchte:Taupunkt:
Aussen-T/F 651 16-02-2019 06:10:00 -1.4 C 95 % -2.1 C
652 16-02-2019 06:15:00 -1.3 C 95 % -2 C
653 16-02-2019 06:20:00 -1.2 C 96 % -1.75 C
654 16-02-2019 06:25:00 -1.2 C 95 % -1.9 C
655 16-02-2019 06:30:00 -1.3 C 95 % -2 C
656 16-02-2019 06:35:00 -1.2 C 95 % -1.9 C
657 16-02-2019 06:40:00 -1.2 C 96 % -1.75 C
658 16-02-2019 06:45:00 -1.2 C 96 % -1.75 C
659 16-02-2019 06:50:00 -1.1 C 96 % -1.66 C
660 16-02-2019 06:55:00 -1 C 96 % -1.56 C
661 16-02-2019 07:00:00 -1.1 C 95 % -1.8 C
662 16-02-2019 07:05:00 -1.2 C 95 % -1.9 C
663 16-02-2019 07:10:00 -1.4 C 95 % -2.1 C
664 16-02-2019 07:15:00 -1.6 C 95 % -2.29 C
665 16-02-2019 07:20:00 -1.7 C 95 % -2.39 C
666 16-02-2019 07:25:00 -1.7 C 95 % -2.39 C
667 16-02-2019 07:30:00 -1.7 C 95 % -2.39 C
668 16-02-2019 07:35:00 -1.7 C 95 % -2.39 C
669 16-02-2019 07:40:00 -1.8 C 95 % -2.49 C
670 16-02-2019 07:45:00 -1.9 C 95 % -2.59 C
671 16-02-2019 07:50:00 -1.9 C 95 % -2.59 C
672 16-02-2019 07:55:00 -2 C 95 % -2.69 C
673 16-02-2019 08:00:00 -2 C 95 % -2.69 C
674 16-02-2019 08:05:00 -1.9 C 96 % -2.45 C
675 16-02-2019 08:10:00 -1.8 C 96 % -2.35 C
Sensor: Nr:Datum:Temp:Feuchte:Taupunkt:
Aussen-T/F 676 16-02-2019 08:15:00 -1.8 C 96 % -2.35 C
677 16-02-2019 08:20:00 -1.8 C 95 % -2.49 C
678 16-02-2019 08:25:00 -1.8 C 95 % -2.49 C
679 16-02-2019 08:30:00 -1.8 C 95 % -2.49 C
680 16-02-2019 08:35:00 -1.8 C 95 % -2.49 C
681 16-02-2019 08:40:00 -1.8 C 95 % -2.49 C
682 16-02-2019 08:45:00 -1.7 C 96 % -2.25 C
683 16-02-2019 08:50:00 -1.6 C 96 % -2.15 C
684 16-02-2019 08:55:00 -1.6 C 96 % -2.15 C
685 16-02-2019 09:00:00 -1.4 C 96 % -1.95 C
686 16-02-2019 09:05:00 -1.3 C 96 % -1.85 C
687 16-02-2019 09:10:00 -1.2 C 96 % -1.75 C
688 16-02-2019 09:15:00 -1.2 C 96 % -1.75 C
689 16-02-2019 09:20:00 -1.2 C 96 % -1.75 C
690 16-02-2019 09:25:00 -1.2 C 96 % -1.75 C
691 16-02-2019 09:30:00 -1.2 C 96 % -1.75 C
692 16-02-2019 09:35:00 -1.1 C 96 % -1.66 C
693 16-02-2019 09:40:00 -0.9 C 96 % -1.46 C
694 16-02-2019 09:45:00 -0.8 C 96 % -1.36 C
695 16-02-2019 09:50:00 -0.8 C 96 % -1.36 C
696 16-02-2019 09:55:00 -0.8 C 96 % -1.36 C
697 16-02-2019 10:00:00 -0.8 C 96 % -1.36 C
698 16-02-2019 10:05:00 -0.8 C 96 % -1.36 C
699 16-02-2019 10:10:00 -0.7 C 96 % -1.26 C
700 16-02-2019 10:15:00 -0.6 C 96 % -1.16 C
Sensor: Nr:Datum:Temp:Feuchte:Taupunkt:
Aussen-T/F 701 16-02-2019 10:20:00 -0.6 C 96 % -1.16 C
702 16-02-2019 10:25:00 -0.5 C 96 % -1.06 C
703 16-02-2019 10:30:00 -0.3 C 96 % -0.86 C
704 16-02-2019 10:35:00 0.1 C 97 % -0.32 C
705 16-02-2019 10:40:00 0.2 C 97 % -0.22 C
706 16-02-2019 10:45:00 0.3 C 97 % -0.12 C
707 16-02-2019 10:50:00 0.4 C 97 % -0.02 C
708 16-02-2019 10:55:00 0.6 C 97 % 0.18 C
709 16-02-2019 11:00:00 0.7 C 97 % 0.28 C
710 16-02-2019 11:05:00 0.9 C 97 % 0.48 C
711 16-02-2019 11:10:00 1.3 C 97 % 0.88 C
712 16-02-2019 11:15:00 1.6 C 97 % 1.18 C
713 16-02-2019 11:20:00 1.9 C 97 % 1.48 C
714 16-02-2019 11:25:00 2.1 C 97 % 1.67 C
715 16-02-2019 11:30:00 2.3 C 97 % 1.87 C
716 16-02-2019 11:35:00 2.6 C 97 % 2.17 C
717 16-02-2019 11:40:00 2.8 C 97 % 2.37 C
718 16-02-2019 11:45:00 3.1 C 97 % 2.67 C
719 16-02-2019 11:50:00 3.3 C 97 % 2.87 C
720 16-02-2019 11:55:00 3.5 C 97 % 3.07 C
721 16-02-2019 12:00:00 3.7 C 97 % 3.27 C
722 16-02-2019 12:05:00 3.8 C 97 % 3.37 C
723 16-02-2019 12:10:00 3.9 C 97 % 3.47 C
724 16-02-2019 12:15:00 4.2 C 97 % 3.77 C
725 16-02-2019 12:20:00 4.4 C 97 % 3.97 C
Sensor: Nr:Datum:Temp:Feuchte:Taupunkt:
Aussen-T/F 726 16-02-2019 12:25:00 4.8 C 97 % 4.37 C
727 16-02-2019 12:30:00 5.1 C 97 % 4.66 C
728 16-02-2019 12:35:00 5.4 C 97 % 4.96 C
729 16-02-2019 12:40:00 5.8 C 97 % 5.36 C
730 16-02-2019 12:45:00 6 C 97 % 5.56 C
731 16-02-2019 12:50:00 6.2 C 97 % 5.76 C
732 16-02-2019 12:55:00 6.3 C 96 % 5.71 C
733 16-02-2019 13:00:00 6.4 C 94 % 5.51 C
734 16-02-2019 13:05:00 6.5 C 93 % 5.45 C
735 16-02-2019 13:10:00 6.7 C 93 % 5.65 C
736 16-02-2019 13:15:00 6.9 C 93 % 5.85 C
737 16-02-2019 13:20:00 7.2 C 92 % 5.99 C
738 16-02-2019 13:25:00 7.6 C 91 % 6.23 C
739 16-02-2019 13:30:00 7.9 C 90 % 6.36 C
740 16-02-2019 13:35:00 8.3 C 89 % 6.6 C
741 16-02-2019 13:40:00 8.7 C 89 % 6.99 C
742 16-02-2019 13:45:00 9 C 87 % 6.96 C
743 16-02-2019 13:50:00 9.3 C 85 % 6.91 C
744 16-02-2019 13:55:00 9.8 C 84 % 7.23 C
745 16-02-2019 14:00:00 10.1 C 82 % 7.17 C
746 16-02-2019 14:05:00 10.4 C 80 % 7.1 C
747 16-02-2019 14:10:00 10.6 C 79 % 7.11 C
748 16-02-2019 14:15:00 10.7 C 79 % 7.21 C
749 16-02-2019 14:20:00 10.7 C 78 % 7.03 C
750 16-02-2019 14:25:00 10.7 C 77 % 6.84 C
Sensor: Nr:Datum:Temp:Feuchte:Taupunkt:
Aussen-T/F 751 16-02-2019 14:30:00 10.7 C 77 % 6.84 C
752 16-02-2019 14:35:00 10.7 C 76 % 6.65 C
753 16-02-2019 14:40:00 10.7 C 76 % 6.65 C
754 16-02-2019 14:45:00 10.7 C 75 % 6.46 C
755 16-02-2019 14:50:00 10.9 C 73 % 6.26 C
756 16-02-2019 14:55:00 11.1 C 73 % 6.45 C
757 16-02-2019 15:00:00 11.3 C 72 % 6.44 C
758 16-02-2019 15:05:00 11.4 C 72 % 6.54 C
759 16-02-2019 15:10:00 11.6 C 71 % 6.53 C
760 16-02-2019 15:15:00 11.6 C 71 % 6.53 C
761 16-02-2019 15:20:00 11.7 C 72 % 6.83 C
762 16-02-2019 15:25:00 11.7 C 70 % 6.42 C
763 16-02-2019 15:30:00 11.8 C 70 % 6.51 C
764 16-02-2019 15:35:00 11.8 C 69 % 6.31 C
765 16-02-2019 15:40:00 11.9 C 68 % 6.19 C
766 16-02-2019 15:45:00 12 C 68 % 6.29 C
767 16-02-2019 15:50:00 12.1 C 68 % 6.38 C
768 16-02-2019 15:55:00 12.2 C 67 % 6.26 C
769 16-02-2019 16:00:00 12.3 C 67 % 6.36 C
770 16-02-2019 16:05:00 12.3 C 67 % 6.36 C
771 16-02-2019 16:10:00 12.2 C 67 % 6.26 C
772 16-02-2019 16:15:00 12.1 C 67 % 6.17 C
773 16-02-2019 16:20:00 11.9 C 67 % 5.98 C
774 16-02-2019 16:25:00 11.8 C 67 % 5.88 C
775 16-02-2019 16:30:00 11.8 C 67 % 5.88 C
Sensor: Nr:Datum:Temp:Feuchte:Taupunkt:
Aussen-T/F 776 16-02-2019 16:35:00 11.7 C 68 % 6 C
777 16-02-2019 16:40:00 11.7 C 67 % 5.78 C
778 16-02-2019 16:45:00 11.6 C 67 % 5.69 C
779 16-02-2019 16:50:00 11.6 C 68 % 5.9 C
780 16-02-2019 16:55:00 11.6 C 68 % 5.9 C
781 16-02-2019 17:00:00 11.5 C 69 % 6.02 C
782 16-02-2019 17:05:00 11.4 C 68 % 5.71 C
783 16-02-2019 17:10:00 11.3 C 69 % 5.83 C
784 16-02-2019 17:15:00 11.2 C 69 % 5.73 C
785 16-02-2019 17:20:00 11 C 69 % 5.54 C
786 16-02-2019 17:25:00 10.8 C 70 % 5.56 C
787 16-02-2019 17:30:00 10.7 C 70 % 5.46 C
788 16-02-2019 17:35:00 10.4 C 70 % 5.17 C
789 16-02-2019 17:40:00 10.3 C 71 % 5.28 C
790 16-02-2019 17:45:00 10.1 C 71 % 5.09 C
791 16-02-2019 17:50:00 9.9 C 72 % 5.1 C
792 16-02-2019 17:55:00 9.7 C 72 % 4.9 C
793 16-02-2019 18:00:00 9.5 C 73 % 4.91 C
794 16-02-2019 18:05:00 9.3 C 74 % 4.91 C
795 16-02-2019 18:10:00 9.2 C 75 % 5.01 C
796 16-02-2019 18:15:00 9 C 75 % 4.81 C
797 16-02-2019 18:20:00 8.9 C 76 % 4.91 C
798 16-02-2019 18:25:00 8.8 C 76 % 4.81 C
799 16-02-2019 18:30:00 8.7 C 77 % 4.9 C
800 16-02-2019 18:35:00 8.5 C 78 % 4.89 C
Sensor: Nr:Datum:Temp:Feuchte:Taupunkt:
Aussen-T/F 801 16-02-2019 18:40:00 8.4 C 78 % 4.79 C
802 16-02-2019 18:45:00 8.3 C 78 % 4.7 C
803 16-02-2019 18:50:00 8.2 C 78 % 4.6 C
804 16-02-2019 18:55:00 8.1 C 79 % 4.68 C
805 16-02-2019 19:00:00 8.1 C 79 % 4.68 C
806 16-02-2019 19:05:00 8 C 79 % 4.59 C
807 16-02-2019 19:10:00 7.8 C 80 % 4.57 C
808 16-02-2019 19:15:00 7.6 C 80 % 4.38 C
809 16-02-2019 19:20:00 7.4 C 81 % 4.36 C
810 16-02-2019 19:25:00 7.3 C 81 % 4.26 C
811 16-02-2019 19:30:00 7.2 C 82 % 4.34 C
812 16-02-2019 19:35:00 7.1 C 83 % 4.41 C
813 16-02-2019 19:40:00 7.1 C 83 % 4.41 C
814 16-02-2019 19:45:00 6.9 C 82 % 4.05 C
815 16-02-2019 19:50:00 6.7 C 81 % 3.68 C
816 16-02-2019 19:55:00 6.3 C 82 % 3.46 C
817 16-02-2019 20:00:00 6.2 C 83 % 3.53 C
818 16-02-2019 20:05:00 6.1 C 83 % 3.44 C
819 16-02-2019 20:10:00 6 C 83 % 3.34 C
820 16-02-2019 20:15:00 5.8 C 83 % 3.14 C
821 16-02-2019 20:20:00 5.6 C 84 % 3.12 C
822 16-02-2019 20:25:00 5.4 C 85 % 3.09 C
823 16-02-2019 20:30:00 5.4 C 85 % 3.09 C
824 16-02-2019 20:35:00 5.3 C 84 % 2.82 C
825 16-02-2019 20:40:00 5.1 C 84 % 2.63 C
Sensor: Nr:Datum:Temp:Feuchte:Taupunkt:
Aussen-T/F 826 16-02-2019 20:45:00 4.8 C 85 % 2.5 C
827 16-02-2019 20:50:00 4.7 C 86 % 2.56 C
828 16-02-2019 20:55:00 4.6 C 86 % 2.47 C
829 16-02-2019 21:00:00 4.3 C 86 % 2.17 C
830 16-02-2019 21:05:00 4.2 C 87 % 2.23 C
831 16-02-2019 21:10:00 3.9 C 87 % 1.94 C
832 16-02-2019 21:15:00 3.8 C 88 % 2 C
833 16-02-2019 21:20:00 3.7 C 89 % 2.06 C
834 16-02-2019 21:25:00 3.8 C 90 % 2.31 C
835 16-02-2019 21:30:00 3.7 C 89 % 2.06 C
836 16-02-2019 21:35:00 3.7 C 89 % 2.06 C
837 16-02-2019 21:40:00 3.6 C 89 % 1.96 C
838 16-02-2019 21:45:00 3.6 C 90 % 2.12 C
839 16-02-2019 21:50:00 3.5 C 90 % 2.02 C
840 16-02-2019 21:55:00 3.3 C 89 % 1.67 C
841 16-02-2019 22:00:00 3.2 C 90 % 1.72 C
842 16-02-2019 22:05:00 3.2 C 90 % 1.72 C
843 16-02-2019 22:10:00 2.9 C 90 % 1.43 C
844 16-02-2019 22:15:00 2.8 C 90 % 1.33 C
845 16-02-2019 22:20:00 2.6 C 90 % 1.13 C
846 16-02-2019 22:25:00 2.7 C 92 % 1.53 C
847 16-02-2019 22:30:00 2.8 C 92 % 1.63 C
848 16-02-2019 22:35:00 2.7 C 92 % 1.53 C
849 16-02-2019 22:40:00 2.8 C 93 % 1.78 C
850 16-02-2019 22:45:00 2.8 C 92 % 1.63 C
Sensor: Nr:Datum:Temp:Feuchte:Taupunkt:
Aussen-T/F 851 16-02-2019 22:50:00 2.7 C 92 % 1.53 C
852 16-02-2019 22:55:00 2.4 C 92 % 1.24 C
853 16-02-2019 23:00:00 2.3 C 92 % 1.14 C
854 16-02-2019 23:05:00 2.1 C 91 % 0.79 C
855 16-02-2019 23:10:00 2 C 92 % 0.84 C
856 16-02-2019 23:15:00 2.1 C 93 % 1.09 C
857 16-02-2019 23:20:00 2 C 93 % 0.99 C
858 16-02-2019 23:25:00 1.9 C 93 % 0.89 C
859 16-02-2019 23:30:00 1.8 C 93 % 0.79 C
860 16-02-2019 23:35:00 1.8 C 93 % 0.79 C
861 16-02-2019 23:40:00 1.9 C 94 % 1.04 C
862 16-02-2019 23:45:00 1.9 C 94 % 1.04 C
863 16-02-2019 23:50:00 1.8 C 94 % 0.94 C
864 16-02-2019 23:55:00 1.9 C 94 % 1.04 C
865 17-02-2019 00:00:00 1.9 C 94 % 1.04 C
866 17-02-2019 00:05:00 1.9 C 94 % 1.04 C
867 17-02-2019 00:10:00 1.8 C 94 % 0.94 C
868 17-02-2019 00:15:00 1.7 C 94 % 0.84 C
869 17-02-2019 00:20:00 1.6 C 94 % 0.74 C
870 17-02-2019 00:25:00 1.5 C 94 % 0.64 C
871 17-02-2019 00:30:00 1.6 C 94 % 0.74 C
872 17-02-2019 00:35:00 1.5 C 94 % 0.64 C
873 17-02-2019 00:40:00 1.3 C 94 % 0.44 C
874 17-02-2019 00:45:00 1.3 C 94 % 0.44 C
875 17-02-2019 00:50:00 1.3 C 94 % 0.44 C
Sensor: Nr:Datum:Temp:Feuchte:Taupunkt:
Aussen-T/F 876 17-02-2019 00:55:00 1.2 C 94 % 0.34 C
877 17-02-2019 01:00:00 1.2 C 94 % 0.34 C
878 17-02-2019 01:05:00 1.2 C 94 % 0.34 C
879 17-02-2019 01:10:00 1.2 C 94 % 0.34 C
880 17-02-2019 01:15:00 0.9 C 94 % 0.05 C
881 17-02-2019 01:20:00 0.8 C 94 % -0.05 C
882 17-02-2019 01:25:00 0.8 C 94 % -0.05 C
883 17-02-2019 01:30:00 0.8 C 94 % -0.05 C
884 17-02-2019 01:35:00 0.7 C 94 % -0.15 C
885 17-02-2019 01:40:00 0.6 C 95 % -0.11 C
886 17-02-2019 01:45:00 0.6 C 95 % -0.11 C
887 17-02-2019 01:50:00 0.8 C 95 % 0.09 C
888 17-02-2019 01:55:00 0.8 C 95 % 0.09 C
889 17-02-2019 02:00:00 0.7 C 95 % -0.01 C
890 17-02-2019 02:05:00 0.7 C 95 % -0.01 C
891 17-02-2019 02:10:00 0.6 C 95 % -0.11 C
892 17-02-2019 02:15:00 0.4 C 95 % -0.31 C
893 17-02-2019 02:20:00 0.4 C 95 % -0.31 C
894 17-02-2019 02:25:00 0.3 C 95 % -0.4 C
895 17-02-2019 02:30:00 0.3 C 95 % -0.4 C
896 17-02-2019 02:35:00 0.2 C 95 % -0.5 C
897 17-02-2019 02:40:00 0.2 C 95 % -0.5 C
898 17-02-2019 02:45:00 0.1 C 95 % -0.6 C
899 17-02-2019 02:50:00 0 C 95 % -0.7 C
900 17-02-2019 02:55:00 0.2 C 95 % -0.5 C
Sensor: Nr:Datum:Temp:Feuchte:Taupunkt:
Aussen-T/F 901 17-02-2019 03:00:00 0.3 C 96 % -0.26 C
902 17-02-2019 03:05:00 0.3 C 95 % -0.4 C
903 17-02-2019 03:10:00 0.2 C 95 % -0.5 C
904 17-02-2019 03:15:00 0.2 C 95 % -0.5 C
905 17-02-2019 03:20:00 0.1 C 95 % -0.6 C
906 17-02-2019 03:25:00 0 C 95 % -0.7 C
907 17-02-2019 03:30:00 -0.1 C 95 % -0.8 C
908 17-02-2019 03:35:00 -0.1 C 95 % -0.8 C
909 17-02-2019 03:40:00 0 C 95 % -0.7 C
910 17-02-2019 03:45:00 0.1 C 96 % -0.46 C
911 17-02-2019 03:50:00 0.1 C 96 % -0.46 C
912 17-02-2019 03:55:00 0 C 96 % -0.56 C
913 17-02-2019 04:00:00 -0.1 C 96 % -0.66 C
914 17-02-2019 04:05:00 -0.2 C 95 % -0.9 C
915 17-02-2019 04:10:00 -0.2 C 95 % -0.9 C
916 17-02-2019 04:15:00 -0.2 C 95 % -0.9 C
917 17-02-2019 04:20:00 -0.3 C 95 % -1 C
918 17-02-2019 04:25:00 -0.3 C 95 % -1 C
919 17-02-2019 04:30:00 -0.3 C 96 % -0.86 C
920 17-02-2019 04:35:00 -0.4 C 96 % -0.96 C
921 17-02-2019 04:40:00 -0.4 C 95 % -1.1 C
922 17-02-2019 04:45:00 -0.6 C 95 % -1.3 C
923 17-02-2019 04:50:00 -0.7 C 95 % -1.4 C
924 17-02-2019 04:55:00 -0.7 C 96 % -1.26 C
925 17-02-2019 05:00:00 -0.6 C 96 % -1.16 C
Sensor: Nr:Datum:Temp:Feuchte:Taupunkt:
Aussen-T/F 926 17-02-2019 05:05:00 -0.6 C 96 % -1.16 C
927 17-02-2019 05:10:00 -0.7 C 96 % -1.26 C
928 17-02-2019 05:15:00 -0.7 C 95 % -1.4 C
929 17-02-2019 05:20:00 -0.8 C 95 % -1.5 C
930 17-02-2019 05:25:00 -0.8 C 95 % -1.5 C
931 17-02-2019 05:30:00 -0.8 C 96 % -1.36 C
932 17-02-2019 05:35:00 -0.9 C 96 % -1.46 C
933 17-02-2019 05:40:00 -1 C 96 % -1.56 C
934 17-02-2019 05:45:00 -1.1 C 96 % -1.66 C
935 17-02-2019 05:50:00 -1.1 C 95 % -1.8 C
936 17-02-2019 05:55:00 -1.2 C 95 % -1.9 C
937 17-02-2019 06:00:00 -1.1 C 96 % -1.66 C
938 17-02-2019 06:05:00 -0.8 C 96 % -1.36 C
939 17-02-2019 06:10:00 -0.8 C 96 % -1.36 C
940 17-02-2019 06:15:00 -0.8 C 96 % -1.36 C
941 17-02-2019 06:20:00 -0.9 C 96 % -1.46 C
942 17-02-2019 06:25:00 -1.1 C 96 % -1.66 C
943 17-02-2019 06:30:00 -1.1 C 96 % -1.66 C
944 17-02-2019 06:35:00 -1.2 C 96 % -1.75 C
945 17-02-2019 06:40:00 -1.1 C 96 % -1.66 C
946 17-02-2019 06:45:00 -1 C 96 % -1.56 C
947 17-02-2019 06:50:00 -0.9 C 96 % -1.46 C
948 17-02-2019 06:55:00 -0.9 C 96 % -1.46 C
949 17-02-2019 07:00:00 -1 C 96 % -1.56 C
950 17-02-2019 07:05:00 -1.1 C 96 % -1.66 C
Sensor: Nr:Datum:Temp:Feuchte:Taupunkt:
Aussen-T/F 951 17-02-2019 07:10:00 -1.2 C 96 % -1.75 C
952 17-02-2019 07:15:00 -1.3 C 96 % -1.85 C
953 17-02-2019 07:20:00 -1.3 C 96 % -1.85 C
954 17-02-2019 07:25:00 -1.2 C 96 % -1.75 C
955 17-02-2019 07:30:00 -1.2 C 96 % -1.75 C
956 17-02-2019 07:35:00 -1.2 C 96 % -1.75 C
957 17-02-2019 07:40:00 -1.3 C 96 % -1.85 C
958 17-02-2019 07:45:00 -1.3 C 96 % -1.85 C
959 17-02-2019 07:50:00 -1.4 C 96 % -1.95 C
960 17-02-2019 07:55:00 -1.5 C 96 % -2.05 C
961 17-02-2019 08:00:00 -1.5 C 96 % -2.05 C
962 17-02-2019 08:05:00 -1.4 C 96 % -1.95 C
963 17-02-2019 08:10:00 -1.5 C 96 % -2.05 C
964 17-02-2019 08:15:00 -1.4 C 96 % -1.95 C
965 17-02-2019 08:20:00 -1.4 C 96 % -1.95 C
966 17-02-2019 08:25:00 -1.4 C 96 % -1.95 C
967 17-02-2019 08:30:00 -1.4 C 96 % -1.95 C
968 17-02-2019 08:35:00 -1.3 C 96 % -1.85 C
969 17-02-2019 08:40:00 -1.2 C 96 % -1.75 C
970 17-02-2019 08:45:00 -1.2 C 96 % -1.75 C
971 17-02-2019 08:50:00 -1.2 C 96 % -1.75 C
972 17-02-2019 08:55:00 -1.1 C 96 % -1.66 C
973 17-02-2019 09:00:00 -1 C 96 % -1.56 C
974 17-02-2019 09:05:00 -0.9 C 96 % -1.46 C
975 17-02-2019 09:10:00 -0.9 C 96 % -1.46 C
Sensor: Nr:Datum:Temp:Feuchte:Taupunkt:
Aussen-T/F 976 17-02-2019 09:15:00 -0.8 C 96 % -1.36 C
977 17-02-2019 09:20:00 -0.8 C 96 % -1.36 C
978 17-02-2019 09:25:00 -0.8 C 96 % -1.36 C
979 17-02-2019 09:30:00 -0.8 C 96 % -1.36 C
980 17-02-2019 09:35:00 -0.8 C 96 % -1.36 C
981 17-02-2019 09:40:00 -0.8 C 96 % -1.36 C
982 17-02-2019 09:45:00 -0.8 C 96 % -1.36 C
983 17-02-2019 09:50:00 -0.7 C 96 % -1.26 C
984 17-02-2019 09:55:00 -0.7 C 96 % -1.26 C
985 17-02-2019 10:00:00 -0.7 C 96 % -1.26 C
986 17-02-2019 10:05:00 -0.6 C 96 % -1.16 C
987 17-02-2019 10:10:00 -0.5 C 96 % -1.06 C
988 17-02-2019 10:15:00 -0.4 C 96 % -0.96 C
989 17-02-2019 10:20:00 -0.4 C 97 % -0.82 C
990 17-02-2019 10:25:00 -0.3 C 97 % -0.72 C
991 17-02-2019 10:30:00 -0.2 C 97 % -0.62 C
992 17-02-2019 10:35:00 -0.1 C 97 % -0.52 C
993 17-02-2019 10:40:00 0.1 C 97 % -0.32 C
994 17-02-2019 10:45:00 0.2 C 97 % -0.22 C
995 17-02-2019 10:50:00 0.3 C 97 % -0.12 C
996 17-02-2019 10:55:00 0.6 C 97 % 0.18 C
997 17-02-2019 11:00:00 0.7 C 97 % 0.28 C
998 17-02-2019 11:05:00 0.9 C 97 % 0.48 C
999 17-02-2019 11:10:00 1.1 C 97 % 0.68 C
1000 17-02-2019 11:15:00 1.3 C 97 % 0.88 C
Sensor: Nr:Datum:Temp:Feuchte:Taupunkt:
Aussen-T/F 1001 17-02-2019 11:20:00 1.6 C 97 % 1.18 C
1002 17-02-2019 11:25:00 1.8 C 97 % 1.38 C
1003 17-02-2019 11:30:00 2.1 C 97 % 1.67 C
1004 17-02-2019 11:35:00 2.3 C 97 % 1.87 C
1005 17-02-2019 11:40:00 2.5 C 97 % 2.07 C
1006 17-02-2019 11:45:00 2.8 C 97 % 2.37 C
1007 17-02-2019 11:50:00 2.9 C 97 % 2.47 C
1008 17-02-2019 11:55:00 3.2 C 97 % 2.77 C
1009 17-02-2019 12:00:00 3.3 C 97 % 2.87 C
1010 17-02-2019 12:05:00 3.5 C 97 % 3.07 C
1011 17-02-2019 12:10:00 3.7 C 97 % 3.27 C
1012 17-02-2019 12:15:00 3.9 C 97 % 3.47 C
1013 17-02-2019 12:20:00 4.2 C 97 % 3.77 C
1014 17-02-2019 12:25:00 4.5 C 97 % 4.07 C
1015 17-02-2019 12:30:00 4.8 C 98 % 4.51 C
1016 17-02-2019 12:35:00 5.2 C 98 % 4.91 C
1017 17-02-2019 12:40:00 5.6 C 98 % 5.31 C
1018 17-02-2019 12:45:00 5.8 C 98 % 5.51 C
1019 17-02-2019 12:50:00 6.1 C 98 % 5.81 C
1020 17-02-2019 12:55:00 6.2 C 97 % 5.76 C
1021 17-02-2019 13:00:00 6.3 C 98 % 6.01 C
1022 17-02-2019 13:05:00 6.5 C 97 % 6.06 C
1023 17-02-2019 13:10:00 6.7 C 97 % 6.26 C
1024 17-02-2019 13:15:00 6.8 C 97 % 6.36 C
1025 17-02-2019 13:20:00 7.1 C 97 % 6.66 C
Sensor: Nr:Datum:Temp:Feuchte:Taupunkt:
Aussen-T/F 1026 17-02-2019 13:25:00 7.3 C 97 % 6.86 C
1027 17-02-2019 13:30:00 7.6 C 97 % 7.16 C
1028 17-02-2019 13:35:00 7.8 C 97 % 7.35 C
1029 17-02-2019 13:40:00 8.1 C 97 % 7.65 C
1030 17-02-2019 13:45:00 8.4 C 96 % 7.8 C
1031 17-02-2019 13:50:00 8.7 C 95 % 7.94 C
1032 17-02-2019 13:55:00 8.9 C 94 % 7.99 C
1033 17-02-2019 14:00:00 9.1 C 92 % 7.87 C
1034 17-02-2019 14:05:00 9.3 C 91 % 7.91 C
1035 17-02-2019 14:10:00 9.5 C 89 % 7.78 C
1036 17-02-2019 14:15:00 9.6 C 88 % 7.71 C
1037 17-02-2019 14:20:00 9.7 C 87 % 7.64 C
1038 17-02-2019 14:25:00 9.8 C 86 % 7.57 C
1039 17-02-2019 14:30:00 9.9 C 85 % 7.5 C
1040 17-02-2019 14:35:00 9.9 C 84 % 7.33 C
1041 17-02-2019 14:40:00 10 C 84 % 7.43 C
1042 17-02-2019 14:45:00 10.1 C 83 % 7.35 C
1043 17-02-2019 14:50:00 10.1 C 83 % 7.35 C
1044 17-02-2019 14:55:00 10.2 C 83 % 7.45 C
1045 17-02-2019 15:00:00 10.2 C 82 % 7.27 C
1046 17-02-2019 15:05:00 10.3 C 81 % 7.19 C
1047 17-02-2019 15:10:00 10.5 C 79 % 7.02 C
1048 17-02-2019 15:15:00 10.8 C 79 % 7.31 C
1049 17-02-2019 15:20:00 11.1 C 79 % 7.6 C
1050 17-02-2019 15:25:00 11.2 C 78 % 7.51 C
Sensor: Nr:Datum:Temp:Feuchte:Taupunkt:
Aussen-T/F 1051 17-02-2019 15:30:00 11.3 C 78 % 7.61 C
1052 17-02-2019 15:35:00 11.4 C 77 % 7.52 C
1053 17-02-2019 15:40:00 11.6 C 75 % 7.33 C
1054 17-02-2019 15:45:00 11.8 C 73 % 7.12 C
1055 17-02-2019 15:50:00 12 C 73 % 7.32 C
1056 17-02-2019 15:55:00 12.1 C 73 % 7.41 C
1057 17-02-2019 16:00:00 12.2 C 71 % 7.1 C
1058 17-02-2019 16:05:00 12.3 C 71 % 7.2 C
1059 17-02-2019 16:10:00 12.3 C 71 % 7.2 C
1060 17-02-2019 16:15:00 12.2 C 71 % 7.1 C
1061 17-02-2019 16:20:00 12.1 C 71 % 7.01 C
1062 17-02-2019 16:25:00 11.9 C 71 % 6.82 C
1063 17-02-2019 16:30:00 11.8 C 71 % 6.72 C
1064 17-02-2019 16:35:00 11.7 C 70 % 6.42 C
1065 17-02-2019 16:40:00 11.7 C 72 % 6.83 C
1066 17-02-2019 16:45:00 11.7 C 71 % 6.62 C
1067 17-02-2019 16:50:00 11.7 C 72 % 6.83 C
1068 17-02-2019 16:55:00 11.7 C 72 % 6.83 C
1069 17-02-2019 17:00:00 11.6 C 71 % 6.53 C
1070 17-02-2019 17:05:00 11.6 C 71 % 6.53 C
1071 17-02-2019 17:10:00 11.4 C 71 % 6.34 C
1072 17-02-2019 17:15:00 11.3 C 72 % 6.44 C
1073 17-02-2019 17:20:00 11.2 C 72 % 6.35 C
1074 17-02-2019 17:25:00 11.1 C 72 % 6.25 C
1075 17-02-2019 17:30:00 11.1 C 73 % 6.45 C
Sensor: Nr:Datum:Temp:Feuchte:Taupunkt:
Aussen-T/F 1076 17-02-2019 17:35:00 10.9 C 73 % 6.26 C
1077 17-02-2019 17:40:00 10.8 C 73 % 6.16 C
1078 17-02-2019 17:45:00 10.6 C 74 % 6.17 C
1079 17-02-2019 17:50:00 10.3 C 74 % 5.88 C
1080 17-02-2019 17:55:00 10.1 C 74 % 5.68 C
1081 17-02-2019 18:00:00 9.8 C 75 % 5.59 C
1082 17-02-2019 18:05:00 9.6 C 75 % 5.39 C
1083 17-02-2019 18:10:00 9.3 C 75 % 5.1 C
1084 17-02-2019 18:15:00 9 C 75 % 4.81 C
1085 17-02-2019 18:20:00 8.8 C 76 % 4.81 C
1086 17-02-2019 18:25:00 8.6 C 76 % 4.62 C
1087 17-02-2019 18:30:00 8.4 C 76 % 4.42 C
1088 17-02-2019 18:35:00 8.3 C 77 % 4.51 C
1089 17-02-2019 18:40:00 8.1 C 77 % 4.32 C
1090 17-02-2019 18:45:00 7.9 C 78 % 4.31 C
1091 17-02-2019 18:50:00 7.7 C 78 % 4.11 C
1092 17-02-2019 18:55:00 7.6 C 78 % 4.02 C
1093 17-02-2019 19:00:00 7.4 C 78 % 3.82 C
1094 17-02-2019 19:05:00 7.3 C 79 % 3.91 C
1095 17-02-2019 19:10:00 7.3 C 80 % 4.09 C
1096 17-02-2019 19:15:00 7.2 C 80 % 3.99 C
1097 17-02-2019 19:20:00 7.1 C 80 % 3.89 C
1098 17-02-2019 19:25:00 6.8 C 79 % 3.42 C
1099 17-02-2019 19:30:00 6.6 C 81 % 3.58 C
1100 17-02-2019 19:35:00 6.3 C 81 % 3.29 C
Sensor: Nr:Datum:Temp:Feuchte:Taupunkt:
Aussen-T/F 1101 17-02-2019 19:40:00 6.3 C 81 % 3.29 C
1102 17-02-2019 19:45:00 6.2 C 81 % 3.19 C
1103 17-02-2019 19:50:00 6.2 C 81 % 3.19 C
1104 17-02-2019 19:55:00 6.1 C 81 % 3.09 C
1105 17-02-2019 20:00:00 6 C 82 % 3.17 C
1106 17-02-2019 20:05:00 5.5 C 81 % 2.51 C
1107 17-02-2019 20:10:00 5.2 C 83 % 2.56 C
1108 17-02-2019 20:15:00 5.1 C 84 % 2.63 C
1109 17-02-2019 20:20:00 4.9 C 84 % 2.43 C
1110 17-02-2019 20:25:00 4.7 C 84 % 2.23 C
1111 17-02-2019 20:30:00 4.4 C 85 % 2.11 C
1112 17-02-2019 20:35:00 4.3 C 86 % 2.17 C
1113 17-02-2019 20:40:00 4.2 C 87 % 2.23 C
1114 17-02-2019 20:45:00 4.2 C 86 % 2.07 C
1115 17-02-2019 20:50:00 4 C 86 % 1.88 C
1116 17-02-2019 20:55:00 3.8 C 87 % 1.84 C
1117 17-02-2019 21:00:00 3.6 C 87 % 1.64 C
1118 17-02-2019 21:05:00 3.6 C 88 % 1.8 C
1119 17-02-2019 21:10:00 3.8 C 89 % 2.16 C
1120 17-02-2019 21:15:00 4.1 C 88 % 2.3 C
1121 17-02-2019 21:20:00 4.2 C 87 % 2.23 C
1122 17-02-2019 21:25:00 4.1 C 86 % 1.97 C
1123 17-02-2019 21:30:00 3.8 C 86 % 1.68 C
1124 17-02-2019 21:35:00 3.6 C 87 % 1.64 C
1125 17-02-2019 21:40:00 3.5 C 88 % 1.7 C
Sensor: Nr:Datum:Temp:Feuchte:Taupunkt:
Aussen-T/F 1126 17-02-2019 21:45:00 3.3 C 87 % 1.35 C
1127 17-02-2019 21:50:00 3.2 C 88 % 1.41 C
1128 17-02-2019 21:55:00 3 C 88 % 1.21 C
1129 17-02-2019 22:00:00 2.8 C 88 % 1.02 C
1130 17-02-2019 22:05:00 2.8 C 89 % 1.17 C
1131 17-02-2019 22:10:00 2.7 C 89 % 1.07 C
1132 17-02-2019 22:15:00 2.5 C 89 % 0.88 C
1133 17-02-2019 22:20:00 2.5 C 90 % 1.03 C
1134 17-02-2019 22:25:00 2.5 C 90 % 1.03 C
1135 17-02-2019 22:30:00 2.4 C 90 % 0.93 C
1136 17-02-2019 22:35:00 2.4 C 90 % 0.93 C
1137 17-02-2019 22:40:00 2.2 C 89 % 0.58 C
1138 17-02-2019 22:45:00 2 C 90 % 0.54 C
1139 17-02-2019 22:50:00 1.9 C 91 % 0.59 C
1140 17-02-2019 22:55:00 1.8 C 90 % 0.34 C
1141 17-02-2019 23:00:00 1.8 C 91 % 0.49 C
1142 17-02-2019 23:05:00 1.7 C 91 % 0.39 C
1143 17-02-2019 23:10:00 1.7 C 91 % 0.39 C
1144 17-02-2019 23:15:00 1.6 C 91 % 0.29 C
1145 17-02-2019 23:20:00 1.7 C 92 % 0.54 C
1146 17-02-2019 23:25:00 1.7 C 92 % 0.54 C
1147 17-02-2019 23:30:00 1.8 C 92 % 0.64 C
1148 17-02-2019 23:35:00 1.7 C 92 % 0.54 C
1149 17-02-2019 23:40:00 1.7 C 92 % 0.54 C
1150 17-02-2019 23:45:00 1.6 C 92 % 0.44 C
Sensor: Nr:Datum:Temp:Feuchte:Taupunkt:
Aussen-T/F 1151 17-02-2019 23:50:00 1.6 C 92 % 0.44 C
1152 17-02-2019 23:55:00 1.8 C 92 % 0.64 C
1153 18-02-2019 00:00:00 1.7 C 92 % 0.54 C
1154 18-02-2019 00:05:00 1.7 C 92 % 0.54 C
1155 18-02-2019 00:10:00 1.8 C 92 % 0.64 C
1156 18-02-2019 00:15:00 1.9 C 92 % 0.74 C
1157 18-02-2019 00:20:00 1.7 C 91 % 0.39 C
1158 18-02-2019 00:25:00 1.5 C 91 % 0.19 C
1159 18-02-2019 00:30:00 1.4 C 91 % 0.1 C
1160 18-02-2019 00:35:00 1.2 C 91 % -0.1 C
1161 18-02-2019 00:40:00 1.3 C 92 % 0.15 C
1162 18-02-2019 00:45:00 1.2 C 92 % 0.05 C
1163 18-02-2019 00:50:00 1.1 C 92 % -0.05 C
1164 18-02-2019 00:55:00 1.1 C 92 % -0.05 C
1165 18-02-2019 01:00:00 0.9 C 92 % -0.25 C
1166 18-02-2019 01:05:00 0.9 C 92 % -0.25 C
1167 18-02-2019 01:10:00 0.9 C 93 % -0.1 C
1168 18-02-2019 01:15:00 0.7 C 92 % -0.45 C
1169 18-02-2019 01:20:00 0.5 C 92 % -0.65 C
1170 18-02-2019 01:25:00 0.4 C 92 % -0.74 C
1171 18-02-2019 01:30:00 0.4 C 93 % -0.6 C
1172 18-02-2019 01:35:00 0.3 C 93 % -0.7 C
1173 18-02-2019 01:40:00 0.3 C 93 % -0.7 C
1174 18-02-2019 01:45:00 0.3 C 93 % -0.7 C
1175 18-02-2019 01:50:00 0.2 C 93 % -0.79 C
Sensor: Nr:Datum:Temp:Feuchte:Taupunkt:
Aussen-T/F 1176 18-02-2019 01:55:00 0.1 C 93 % -0.89 C
1177 18-02-2019 02:00:00 0.1 C 93 % -0.89 C
1178 18-02-2019 02:05:00 0 C 93 % -0.99 C
1179 18-02-2019 02:10:00 0 C 93 % -0.99 C
1180 18-02-2019 02:15:00 0.1 C 94 % -0.75 C
1181 18-02-2019 02:20:00 0.1 C 94 % -0.75 C
1182 18-02-2019 02:25:00 0.1 C 94 % -0.75 C
1183 18-02-2019 02:30:00 0.1 C 94 % -0.75 C
1184 18-02-2019 02:35:00 0.2 C 94 % -0.65 C
1185 18-02-2019 02:40:00 0.2 C 94 % -0.65 C
1186 18-02-2019 02:45:00 0.2 C 94 % -0.65 C
1187 18-02-2019 02:50:00 0.1 C 94 % -0.75 C
1188 18-02-2019 02:55:00 -0.2 C 94 % -1.05 C
1189 18-02-2019 03:00:00 -0.3 C 94 % -1.15 C
1190 18-02-2019 03:05:00 -0.3 C 94 % -1.15 C
1191 18-02-2019 03:10:00 -0.3 C 94 % -1.15 C
1192 18-02-2019 03:15:00 -0.3 C 94 % -1.15 C
1193 18-02-2019 03:20:00 -0.4 C 94 % -1.25 C
1194 18-02-2019 03:25:00 -0.4 C 94 % -1.25 C
1195 18-02-2019 03:30:00 -0.4 C 94 % -1.25 C
1196 18-02-2019 03:35:00 -0.4 C 94 % -1.25 C
1197 18-02-2019 03:40:00 -0.4 C 95 % -1.1 C
1198 18-02-2019 03:45:00 -0.5 C 94 % -1.34 C
1199 18-02-2019 03:50:00 -0.6 C 94 % -1.44 C
1200 18-02-2019 03:55:00 -0.7 C 94 % -1.54 C
Sensor: Nr:Datum:Temp:Feuchte:Taupunkt:
Aussen-T/F 1201 18-02-2019 04:00:00 -0.7 C 94 % -1.54 C
1202 18-02-2019 04:05:00 -0.8 C 94 % -1.64 C
1203 18-02-2019 04:10:00 -0.8 C 94 % -1.64 C
1204 18-02-2019 04:15:00 -0.8 C 94 % -1.64 C
1205 18-02-2019 04:20:00 -0.9 C 94 % -1.74 C
1206 18-02-2019 04:25:00 -0.8 C 95 % -1.5 C
1207 18-02-2019 04:30:00 -0.7 C 95 % -1.4 C
1208 18-02-2019 04:35:00 -0.7 C 95 % -1.4 C
1209 18-02-2019 04:40:00 -0.7 C 95 % -1.4 C
1210 18-02-2019 04:45:00 -0.7 C 95 % -1.4 C
1211 18-02-2019 04:50:00 -0.8 C 95 % -1.5 C
1212 18-02-2019 04:55:00 -0.9 C 95 % -1.6 C
1213 18-02-2019 05:00:00 -1 C 95 % -1.7 C
1214 18-02-2019 05:05:00 -1.1 C 95 % -1.8 C
1215 18-02-2019 05:10:00 -1.1 C 95 % -1.8 C
1216 18-02-2019 05:15:00 -1.2 C 95 % -1.9 C
1217 18-02-2019 05:20:00 -1.2 C 95 % -1.9 C
1218 18-02-2019 05:25:00 -1.3 C 95 % -2 C
1219 18-02-2019 05:30:00 -1.2 C 95 % -1.9 C
1220 18-02-2019 05:35:00 -1.2 C 95 % -1.9 C
1221 18-02-2019 05:40:00 -1.2 C 95 % -1.9 C
1222 18-02-2019 05:45:00 -1.3 C 95 % -2 C
1223 18-02-2019 05:50:00 -1.3 C 95 % -2 C
1224 18-02-2019 05:55:00 -1.5 C 95 % -2.19 C
1225 18-02-2019 06:00:00 -1.5 C 95 % -2.19 C
Sensor: Nr:Datum:Temp:Feuchte:Taupunkt:
Aussen-T/F 1226 18-02-2019 06:05:00 -1.4 C 95 % -2.1 C
1227 18-02-2019 06:10:00 -1.4 C 95 % -2.1 C
1228 18-02-2019 06:15:00 -1.4 C 95 % -2.1 C
1229 18-02-2019 06:20:00 -1.6 C 95 % -2.29 C
1230 18-02-2019 06:25:00 -1.4 C 95 % -2.1 C
1231 18-02-2019 06:30:00 -1.4 C 95 % -2.1 C
1232 18-02-2019 06:35:00 -1.4 C 95 % -2.1 C
1233 18-02-2019 06:40:00 -1.6 C 95 % -2.29 C
1234 18-02-2019 06:45:00 -1.7 C 95 % -2.39 C
1235 18-02-2019 06:50:00 -1.6 C 95 % -2.29 C
1236 18-02-2019 06:55:00 -1.3 C 95 % -2 C
1237 18-02-2019 07:00:00 -1.3 C 96 % -1.85 C
1238 18-02-2019 07:05:00 -1.3 C 95 % -2 C
1239 18-02-2019 07:10:00 -1.5 C 95 % -2.19 C
1240 18-02-2019 07:15:00 -1.7 C 95 % -2.39 C
1241 18-02-2019 07:20:00 -1.7 C 95 % -2.39 C
1242 18-02-2019 07:25:00 -1.6 C 95 % -2.29 C
1243 18-02-2019 07:30:00 -1.6 C 95 % -2.29 C
1244 18-02-2019 07:35:00 -1.7 C 95 % -2.39 C
1245 18-02-2019 07:40:00 -1.8 C 95 % -2.49 C
1246 18-02-2019 07:45:00 -1.8 C 95 % -2.49 C
1247 18-02-2019 07:50:00 -1.9 C 95 % -2.59 C
1248 18-02-2019 07:55:00 -1.9 C 95 % -2.59 C
1249 18-02-2019 08:00:00 -1.9 C 95 % -2.59 C
1250 18-02-2019 08:05:00 -1.9 C 95 % -2.59 C
Sensor: Nr:Datum:Temp:Feuchte:Taupunkt:
Aussen-T/F 1251 18-02-2019 08:10:00 -1.9 C 95 % -2.59 C
1252 18-02-2019 08:15:00 -1.9 C 95 % -2.59 C
1253 18-02-2019 08:20:00 -1.9 C 95 % -2.59 C
1254 18-02-2019 08:25:00 -1.8 C 95 % -2.49 C
1255 18-02-2019 08:30:00 -1.8 C 95 % -2.49 C
1256 18-02-2019 08:35:00 -1.7 C 96 % -2.25 C
1257 18-02-2019 08:40:00 -1.4 C 96 % -1.95 C
1258 18-02-2019 08:45:00 -1.2 C 96 % -1.75 C
1259 18-02-2019 08:50:00 -1.1 C 96 % -1.66 C
1260 18-02-2019 08:55:00 -1.1 C 96 % -1.66 C
1261 18-02-2019 09:00:00 -0.9 C 96 % -1.46 C
1262 18-02-2019 09:05:00 -0.6 C 96 % -1.16 C
1263 18-02-2019 09:10:00 -0.5 C 96 % -1.06 C
1264 18-02-2019 09:15:00 -0.6 C 96 % -1.16 C
1265 18-02-2019 09:20:00 -0.6 C 96 % -1.16 C
1266 18-02-2019 09:25:00 -0.5 C 96 % -1.06 C
1267 18-02-2019 09:30:00 -0.4 C 96 % -0.96 C
1268 18-02-2019 09:35:00 -0.4 C 96 % -0.96 C
1269 18-02-2019 09:40:00 -0.5 C 96 % -1.06 C
1270 18-02-2019 09:45:00 -0.6 C 96 % -1.16 C
1271 18-02-2019 09:50:00 -0.6 C 96 % -1.16 C
1272 18-02-2019 09:55:00 -0.6 C 96 % -1.16 C
1273 18-02-2019 10:00:00 -0.5 C 96 % -1.06 C
1274 18-02-2019 10:05:00 -0.5 C 96 % -1.06 C
1275 18-02-2019 10:10:00 -0.4 C 96 % -0.96 C
Sensor: Nr:Datum:Temp:Feuchte:Taupunkt:
Aussen-T/F 1276 18-02-2019 10:15:00 -0.3 C 96 % -0.86 C
1277 18-02-2019 10:20:00 -0.1 C 96 % -0.66 C
1278 18-02-2019 10:25:00 0.1 C 96 % -0.46 C
1279 18-02-2019 10:30:00 0.2 C 96 % -0.36 C
1280 18-02-2019 10:35:00 0.3 C 96 % -0.26 C
1281 18-02-2019 10:40:00 0.5 C 96 % -0.06 C
1282 18-02-2019 10:45:00 0.7 C 96 % 0.14 C
1283 18-02-2019 10:50:00 1 C 97 % 0.58 C
1284 18-02-2019 10:55:00 1.3 C 97 % 0.88 C
1285 18-02-2019 11:00:00 1.6 C 97 % 1.18 C
1286 18-02-2019 11:05:00 1.7 C 97 % 1.28 C
1287 18-02-2019 11:10:00 1.9 C 97 % 1.48 C
1288 18-02-2019 11:15:00 2.2 C 97 % 1.77 C
1289 18-02-2019 11:20:00 2.4 C 97 % 1.97 C
1290 18-02-2019 11:25:00 2.7 C 97 % 2.27 C
1291 18-02-2019 11:30:00 3 C 97 % 2.57 C
1292 18-02-2019 11:35:00 3.3 C 97 % 2.87 C
1293 18-02-2019 11:40:00 3.6 C 97 % 3.17 C
1294 18-02-2019 11:45:00 3.7 C 96 % 3.12 C
1295 18-02-2019 11:50:00 3.9 C 96 % 3.32 C
1296 18-02-2019 11:55:00 4.1 C 95 % 3.37 C
1297 18-02-2019 12:00:00 4.2 C 95 % 3.47 C
1298 18-02-2019 12:05:00 4.4 C 95 % 3.67 C
1299 18-02-2019 12:10:00 4.7 C 95 % 3.97 C
1300 18-02-2019 12:15:00 4.9 C 95 % 4.17 C
Sensor: Nr:Datum:Temp:Feuchte:Taupunkt:
Aussen-T/F 1301 18-02-2019 12:20:00 5.3 C 95 % 4.57 C
1302 18-02-2019 12:25:00 5.6 C 95 % 4.86 C
1303 18-02-2019 12:30:00 6.1 C 95 % 5.36 C
1304 18-02-2019 12:35:00 6.6 C 93 % 5.55 C
1305 18-02-2019 12:40:00 7.1 C 92 % 5.89 C
1306 18-02-2019 12:45:00 7.5 C 90 % 5.97 C
1307 18-02-2019 12:50:00 7.9 C 88 % 6.04 C
1308 18-02-2019 12:55:00 8.2 C 87 % 6.17 C
1309 18-02-2019 13:00:00 8.3 C 86 % 6.1 C
1310 18-02-2019 13:05:00 8.4 C 85 % 6.03 C
1311 18-02-2019 13:10:00 8.6 C 84 % 6.05 C
1312 18-02-2019 13:15:00 8.8 C 83 % 6.08 C
1313 18-02-2019 13:20:00 9 C 83 % 6.27 C
1314 18-02-2019 13:25:00 9.3 C 81 % 6.21 C
1315 18-02-2019 13:30:00 9.7 C 81 % 6.6 C
1316 18-02-2019 13:35:00 10 C 79 % 6.53 C
1317 18-02-2019 13:40:00 10.3 C 78 % 6.64 C
1318 18-02-2019 13:45:00 10.6 C 76 % 6.55 C
1319 18-02-2019 13:50:00 10.9 C 75 % 6.65 C
1320 18-02-2019 13:55:00 11.2 C 74 % 6.74 C
1321 18-02-2019 14:00:00 11.5 C 73 % 6.84 C
1322 18-02-2019 14:05:00 11.6 C 71 % 6.53 C
1323 18-02-2019 14:10:00 11.7 C 71 % 6.62 C
1324 18-02-2019 14:15:00 11.7 C 71 % 6.62 C
1325 18-02-2019 14:20:00 11.6 C 71 % 6.53 C
Sensor: Nr:Datum:Temp:Feuchte:Taupunkt:
Aussen-T/F 1326 18-02-2019 14:25:00 11.5 C 71 % 6.43 C
1327 18-02-2019 14:30:00 11.3 C 72 % 6.44 C
1328 18-02-2019 14:35:00 11.2 C 72 % 6.35 C
1329 18-02-2019 14:40:00 11 C 73 % 6.35 C
1330 18-02-2019 14:45:00 10.9 C 73 % 6.26 C
1331 18-02-2019 14:50:00 11 C 73 % 6.35 C
1332 18-02-2019 14:55:00 11.1 C 73 % 6.45 C
1333 18-02-2019 15:00:00 11.1 C 73 % 6.45 C
1334 18-02-2019 15:05:00 11.2 C 72 % 6.35 C
1335 18-02-2019 15:10:00 11.4 C 71 % 6.34 C
1336 18-02-2019 15:15:00 11.6 C 71 % 6.53 C
1337 18-02-2019 15:20:00 11.7 C 69 % 6.21 C
1338 18-02-2019 15:25:00 11.9 C 67 % 5.98 C
1339 18-02-2019 15:30:00 12.2 C 65 % 5.82 C
1340 18-02-2019 15:35:00 12.4 C 65 % 6.01 C
1341 18-02-2019 15:40:00 12.6 C 66 % 6.42 C
1342 18-02-2019 15:45:00 12.7 C 60 % 5.14 C
1343 18-02-2019 15:50:00 12.9 C 62 % 5.8 C
1344 18-02-2019 15:55:00 13 C 62 % 5.9 C
1345 18-02-2019 16:00:00 12.9 C 62 % 5.8 C
1346 18-02-2019 16:05:00 12.8 C 62 % 5.71 C
1347 18-02-2019 16:10:00 12.6 C 61 % 5.29 C
1348 18-02-2019 16:15:00 12.4 C 63 % 5.56 C
1349 18-02-2019 16:20:00 12.2 C 62 % 5.14 C
1350 18-02-2019 16:25:00 11.9 C 63 % 5.09 C
Sensor: Nr:Datum:Temp:Feuchte:Taupunkt:
Aussen-T/F 1351 18-02-2019 16:30:00 11.7 C 65 % 5.35 C
1352 18-02-2019 16:35:00 11.5 C 66 % 5.38 C
1353 18-02-2019 16:40:00 11.3 C 67 % 5.4 C
1354 18-02-2019 16:45:00 11.1 C 68 % 5.43 C
1355 18-02-2019 16:50:00 10.9 C 68 % 5.23 C
1356 18-02-2019 16:55:00 10.8 C 68 % 5.14 C
1357 18-02-2019 17:00:00 10.8 C 68 % 5.14 C
1358 18-02-2019 17:05:00 10.8 C 68 % 5.14 C
1359 18-02-2019 17:10:00 10.8 C 69 % 5.35 C
1360 18-02-2019 17:15:00 10.9 C 68 % 5.23 C
1361 18-02-2019 17:20:00 10.9 C 68 % 5.23 C
1362 18-02-2019 17:25:00 10.8 C 69 % 5.35 C
1363 18-02-2019 17:30:00 10.6 C 70 % 5.36 C
1364 18-02-2019 17:35:00 10.3 C 70 % 5.08 C
1365 18-02-2019 17:40:00 10.1 C 70 % 4.89 C
1366 18-02-2019 17:45:00 9.9 C 71 % 4.9 C
1367 18-02-2019 17:50:00 9.7 C 72 % 4.9 C
1368 18-02-2019 17:55:00 9.5 C 72 % 4.71 C
1369 18-02-2019 18:00:00 9.3 C 73 % 4.72 C
1370 18-02-2019 18:05:00 9.1 C 73 % 4.52 C
1371 18-02-2019 18:10:00 8.9 C 73 % 4.33 C
1372 18-02-2019 18:15:00 8.7 C 74 % 4.33 C
1373 18-02-2019 18:20:00 8.5 C 74 % 4.14 C
1374 18-02-2019 18:25:00 8.3 C 75 % 4.14 C
1375 18-02-2019 18:30:00 8.3 C 76 % 4.33 C
Sensor: Nr:Datum:Temp:Feuchte:Taupunkt:
Aussen-T/F 1376 18-02-2019 18:35:00 8.2 C 76 % 4.23 C
1377 18-02-2019 18:40:00 8.1 C 76 % 4.13 C
1378 18-02-2019 18:45:00 8 C 76 % 4.04 C
1379 18-02-2019 18:50:00 7.9 C 76 % 3.94 C
1380 18-02-2019 18:55:00 7.7 C 75 % 3.56 C
1381 18-02-2019 19:00:00 7.5 C 76 % 3.55 C
1382 18-02-2019 19:05:00 7.3 C 78 % 3.73 C
1383 18-02-2019 19:10:00 7.2 C 79 % 3.81 C
1384 18-02-2019 19:15:00 7.1 C 79 % 3.71 C
1385 18-02-2019 19:20:00 6.9 C 80 % 3.7 C
1386 18-02-2019 19:25:00 6.8 C 81 % 3.77 C
1387 18-02-2019 19:30:00 6.8 C 81 % 3.77 C
1388 18-02-2019 19:35:00 6.8 C 82 % 3.95 C
1389 18-02-2019 19:40:00 6.9 C 81 % 3.87 C
1390 18-02-2019 19:45:00 6.9 C 81 % 3.87 C
1391 18-02-2019 19:50:00 6.9 C 81 % 3.87 C
1392 18-02-2019 19:55:00 6.9 C 81 % 3.87 C
1393 18-02-2019 20:00:00 6.8 C 80 % 3.6 C
1394 18-02-2019 20:05:00 6.7 C 79 % 3.32 C
1395 18-02-2019 20:10:00 6.6 C 79 % 3.23 C
1396 18-02-2019 20:15:00 6.4 C 78 % 2.85 C
1397 18-02-2019 20:20:00 6.1 C 79 % 2.74 C
1398 18-02-2019 20:25:00 5.8 C 81 % 2.8 C
1399 18-02-2019 20:30:00 5.5 C 81 % 2.51 C
1400 18-02-2019 20:35:00 5.2 C 82 % 2.39 C
Sensor: Nr:Datum:Temp:Feuchte:Taupunkt:
Aussen-T/F 1401 18-02-2019 20:40:00 4.9 C 82 % 2.09 C
1402 18-02-2019 20:45:00 4.7 C 84 % 2.23 C
1403 18-02-2019 20:50:00 4.6 C 85 % 2.3 C
1404 18-02-2019 20:55:00 4.6 C 86 % 2.47 C
1405 18-02-2019 21:00:00 4.6 C 86 % 2.47 C
1406 18-02-2019 21:05:00 4.6 C 86 % 2.47 C
1407 18-02-2019 21:10:00 4.4 C 86 % 2.27 C
1408 18-02-2019 21:15:00 4.3 C 86 % 2.17 C
1409 18-02-2019 21:20:00 4.3 C 86 % 2.17 C
1410 18-02-2019 21:25:00 4.2 C 86 % 2.07 C
1411 18-02-2019 21:30:00 4.2 C 86 % 2.07 C
1412 18-02-2019 21:35:00 4 C 86 % 1.88 C
1413 18-02-2019 21:40:00 3.9 C 86 % 1.78 C
1414 18-02-2019 21:45:00 3.8 C 86 % 1.68 C
1415 18-02-2019 21:50:00 3.6 C 86 % 1.48 C
1416 18-02-2019 21:55:00 3.3 C 86 % 1.19 C
1417 18-02-2019 22:00:00 3.2 C 87 % 1.25 C
1418 18-02-2019 22:05:00 3 C 87 % 1.05 C
1419 18-02-2019 22:10:00 3 C 88 % 1.21 C
1420 18-02-2019 22:15:00 2.9 C 89 % 1.27 C
1421 18-02-2019 22:20:00 2.9 C 89 % 1.27 C
1422 18-02-2019 22:25:00 2.8 C 89 % 1.17 C
1423 18-02-2019 22:30:00 2.7 C 89 % 1.07 C
1424 18-02-2019 22:35:00 2.7 C 89 % 1.07 C
1425 18-02-2019 22:40:00 2.7 C 89 % 1.07 C
Sensor: Nr:Datum:Temp:Feuchte:Taupunkt:
Aussen-T/F 1426 18-02-2019 22:45:00 2.5 C 89 % 0.88 C
1427 18-02-2019 22:50:00 2.4 C 90 % 0.93 C
1428 18-02-2019 22:55:00 2.4 C 90 % 0.93 C
1429 18-02-2019 23:00:00 2.3 C 90 % 0.83 C
1430 18-02-2019 23:05:00 2.3 C 90 % 0.83 C
1431 18-02-2019 23:10:00 2.2 C 91 % 0.89 C
1432 18-02-2019 23:15:00 2.3 C 91 % 0.99 C
1433 18-02-2019 23:20:00 2.3 C 91 % 0.99 C
1434 18-02-2019 23:25:00 2.3 C 91 % 0.99 C
1435 18-02-2019 23:30:00 2.2 C 91 % 0.89 C
1436 18-02-2019 23:35:00 2.1 C 91 % 0.79 C
1437 18-02-2019 23:40:00 2 C 91 % 0.69 C
1438 18-02-2019 23:45:00 1.9 C 91 % 0.59 C
1439 18-02-2019 23:50:00 1.9 C 91 % 0.59 C
1440 18-02-2019 23:55:00 1.8 C 91 % 0.49 C

Legende:
   Min
   Max


Maximal/Minimal-Werte vom 17.01.2019 - 19.02.2019

Sensor Min Max Avg
Temp
(Aussen-T/F)
-8.8 °C
22-01-2019  06:35:00
13 °C
18-02-2019  15:55:00
2.02 °C
Feuchte
(Aussen-T/F)
60 %
18-02-2019  15:45:00
98 %
02-02-2019  10:00:00
89.57 %

Die Daten stammen von einer Davis Vantage Pro 2 Wetter-Station und werden unter Linux mit der Software wview2wettercgi und aufbereitet. Alle Angaben erfolgen ohne Gewähr für ihre Vollständigkeit oder Richtigkeit.
Kontakt: Rainer Krienke krienke@uni-koblenz.de . Meine Webseiten an der Uni Koblenz oder privat.
Version: $Revision: 0.78 $